M I D A S
Marine Information and Data Acquisition System
Tripno 447 of the Zeeleeuw from 2003-03-18 07:55:48 to 2003-03-18 14:00:53
Back to CruiseResearch ActivitiesStationsMapUnderway DataData graphs

EquipmentUnitsComment
TimeDGPSUTC
LatitudeDGPSDM.mWGS84
LongitudeDGPSDM.mWGS84
TemperatureSBE03/SBE38deg celciusITS90
ConductivitySBE21S/mITS90
SalinitySBE21 Practical Salinity Units
ChlorophylAChelsea fluorimeterg/lCalibrated in Aceton
Missing or incorrect values are displayed as -999
Sea surface data collected by the RV Zeeleeuw from 2003-03-18 07:55:48 to 2003-03-18 14:00:53
                                                                                    Next 1000 lines
Time Latitude Longitude Temperature Conductivity Salinity ChlorophylA
2003-03-18 07:55:58 51°13.68 2°55.911 7.622505 2.771488 26.97886 15.095879
2003-03-18 07:56:02 51°13.68 2°55.911 8.234143 2.761072 26.85721 15.230717
2003-03-18 07:56:08 51°13.681 2°55.911 7.794672 2.747396 26.702812 15.331845
2003-03-18 07:56:12 51°13.681 2°55.911 8.078759 2.730563 26.516859 15.163298
2003-03-18 07:56:18 51°13.681 2°55.911 7.976057 2.72099 26.406684 15.264426
2003-03-18 07:56:22 51°13.681 2°55.911 7.976057 2.72099 26.406684 15.264426
2003-03-18 07:56:28 51°13.681 2°55.911 7.901491 2.717098 26.359875 15.298136
2003-03-18 07:56:33 51°13.681 2°55.912 7.622408 2.70742 26.248751 15.095879
2003-03-18 07:56:38 51°13.68 2°55.913 7.630923 2.708683 26.256995 15.129589
2003-03-18 07:56:42 51°13.68 2°55.913 8.628061 2.709314 26.258506 15.163298
2003-03-18 07:56:48 51°13.68 2°55.914 8.075087 2.702897 26.184884 15.365554
2003-03-18 07:56:52 51°13.68 2°55.914 8.075087 2.702897 26.184884 15.365554
2003-03-18 07:56:58 51°13.68 2°55.913 7.957956 2.680071 25.935289 15.264426
2003-03-18 07:57:02 51°13.681 2°55.913 8.166486 2.674075 25.867628 15.365554
2003-03-18 07:57:08 51°13.681 2°55.911 8.084605 2.65956 25.708787 15.264426
2003-03-18 07:57:12 51°13.681 2°55.909 8.244264 2.653249 25.636626 15.298136
2003-03-18 07:57:18 51°13.682 2°55.906 8.362077 2.653459 25.635043 15.331845
2003-03-18 07:57:23 51°13.683 2°55.904 8.362077 2.653459 25.635043 15.331845
2003-03-18 07:57:27 51°13.682 2°55.901 7.812868 2.649567 25.592438 15.432973
2003-03-18 07:57:34 51°13.683 2°55.895 8.051165 2.634317 25.427383 15.399264
2003-03-18 07:57:38 51°13.683 2°55.891 7.717757 2.632634 25.407637 15.500392
2003-03-18 07:57:44 51°13.685 2°55.884 8.335471 2.629163 25.368931 15.264426
2003-03-18 07:57:50 51°13.685 2°55.877 7.721693 2.614439 25.210319 15.197007
2003-03-18 07:57:54 51°13.685 2°55.872 7.721693 2.614439 25.210319 15.197007
2003-03-18 07:57:59 51°13.686 2°55.865 8.109914 2.628322 25.356233 15.432973
2003-03-18 07:58:04 51°13.687 2°55.857 7.855595 2.620854 25.276436 16.241999
2003-03-18 07:58:10 51°13.687 2°55.848 8.197984 2.621275 25.28215 17.421828
2003-03-18 07:58:14 51°13.687 2°55.841 8.45989 2.623694 25.314701 17.86005
2003-03-18 07:58:19 51°13.687 2°55.833 8.132124 2.648305 25.584113 18.500529
2003-03-18 07:58:24 51°13.687 2°55.824 8.132124 2.648305 25.584113 18.500529
2003-03-18 07:58:29 51°13.686 2°55.817 8.241517 2.666081 25.783878 18.601657
2003-03-18 07:58:34 51°13.686 2°55.81 7.930408 2.691536 26.064479 19.039879
2003-03-18 07:58:38 51°13.687 2°55.804 8.007262 2.700267 26.164656 20.152289
2003-03-18 07:58:44 51°13.687 2°55.796 8.046525 2.722463 26.416499 21.197281
2003-03-18 07:58:49 51°13.686 2°55.788 8.405306 2.743293 26.650297 22.141144
2003-03-18 07:58:54 51°13.685 2°55.781 8.405306 2.743293 26.650297 22.141144
2003-03-18 07:58:59 51°13.684 2°55.773 7.463632 2.751498 26.746049 22.95017
2003-03-18 07:59:04 51°13.684 2°55.767 8.058947 2.748027 26.712225 23.658067
2003-03-18 07:59:09 51°13.683 2°55.76 7.875421 2.758547 26.826164 23.961452
2003-03-18 07:59:14 51°13.683 2°55.755 7.76249 2.756969 26.810603 24.703059
2003-03-18 07:59:18 51°13.683 2°55.752 7.9642 2.756443 26.804304 24.871606
2003-03-18 07:59:22 51°13.683 2°55.75 7.9642 2.756443 26.804304 24.871606
2003-03-18 07:59:28 51°13.683 2°55.748 7.726648 2.74424 26.672367 24.939024
2003-03-18 07:59:33 51°13.683 2°55.746 8.522058 2.728249 26.499378 25.17499
2003-03-18 07:59:38 51°13.684 2°55.746 8.170297 2.724357 26.453824 24.804187
2003-03-18 07:59:43 51°13.685 2°55.745 8.370542 2.708893 26.282756 24.770477
2003-03-18 07:59:48 51°13.686 2°55.746 8.054646 2.695218 26.132919 24.770477
2003-03-18 07:59:53 51°13.687 2°55.746 8.054646 2.695218 26.132919 24.770477
2003-03-18 07:59:58 51°13.689 2°55.747 8.337781 2.683647 26.006946 24.63564
2003-03-18 08:00:03 51°13.69 2°55.748 8.042271 2.66787 25.836902 24.129999
2003-03-18 08:00:08 51°13.692 2°55.749 8.141537 2.663662 25.789532 24.028871
2003-03-18 08:00:13 51°13.694 2°55.749 8.691838 2.651566 25.656958 24.163708
2003-03-18 08:00:18 51°13.697 2°55.75 7.552155 2.651251 25.653601 23.759195
2003-03-18 08:00:23 51°13.7 2°55.749 7.552155 2.651251 25.653601 23.759195
2003-03-18 08:00:28 51°13.703 2°55.749 7.718632 2.639786 25.529764 23.860324
2003-03-18 08:00:33 51°13.706 2°55.749 7.60153 2.620013 25.312722 24.298546
2003-03-18 08:00:38 51°13.71 2°55.748 7.917671 2.595509 25.043345 24.365965
2003-03-18 08:00:43 51°13.715 2°55.747 8.154133 2.57048 24.769553 24.433383
2003-03-18 08:00:48 51°13.72 2°55.745 7.953648 2.556178 24.613344 24.298546
2003-03-18 08:00:53 51°13.725 2°55.741 7.953648 2.556178 24.613344 24.298546
2003-03-18 08:00:58 51°13.731 2°55.737 7.758411 2.539143 24.429034 24.298546
2003-03-18 08:01:02 51°13.735 2°55.733 8.040386 2.525158 24.277133 24.028871
2003-03-18 08:01:08 51°13.742 2°55.726 7.966572 2.52295 24.252023 24.06258
2003-03-18 08:01:13 51°13.747 2°55.72 8.210618 2.521373 24.23538 23.860324
2003-03-18 08:01:18 51°13.754 2°55.712 8.176183 2.525474 24.278655 23.792905
2003-03-18 08:01:22 51°13.759 2°55.706 8.176183 2.525474 24.278655 23.792905
2003-03-18 08:01:28 51°13.768 2°55.697 8.077889 2.528207 24.308113 23.759195
2003-03-18 08:01:32 51°13.774 2°55.69 8.583495 2.537356 24.404095 23.759195
2003-03-18 08:01:38 51°13.783 2°55.678 8.024237 2.533885 24.363222 23.792905
2003-03-18 08:01:42 51°13.79 2°55.67 8.124882 2.525789 24.274155 23.320973
2003-03-18 08:01:48 51°13.802 2°55.658 7.651451 2.516115 24.168521 23.219845
2003-03-18 08:01:53 51°13.813 2°55.649 7.651451 2.516115 24.168521 23.219845
2003-03-18 08:01:58 51°13.824 2°55.639 8.091754 2.489829 23.885035 23.894033
2003-03-18 08:02:02 51°13.834 2°55.632 8.041063 2.455134 23.508474 23.995161
2003-03-18 08:02:08 51°13.848 2°55.622 8.028976 2.424016 23.16813 24.129999
2003-03-18 08:02:12 51°13.858 2°55.615 8.322429 2.386278 22.755002 23.995161
2003-03-18 08:02:18 51°13.872 2°55.604 7.747437 2.361157 22.484283 23.894033
2003-03-18 08:02:22 51°13.881 2°55.597 7.747437 2.361157 22.484283 23.894033
2003-03-18 08:02:28 51°13.895 2°55.586 7.893642 2.352433 22.383322 23.658067
2003-03-18 08:02:33 51°13.907 2°55.577 8.503918 2.342343 22.277068 23.455811
2003-03-18 08:02:38 51°13.92 2°55.568 8.138061 2.362944 22.492917 23.152426
2003-03-18 08:02:42 51°13.931 2°55.562 8.555206 2.389747 22.781115 23.691777
2003-03-18 08:02:48 51°13.947 2°55.551 8.320936 2.408458 22.986939 24.06258
2003-03-18 08:02:52 51°13.957 2°55.544 8.320936 2.408458 22.986939 24.06258
2003-03-18 08:02:58 51°13.973 2°55.534 7.976057 2.449141 23.422335 24.365965
2003-03-18 08:03:03 51°13.985 2°55.524 8.247733 2.482154 23.778321 24.770477
2003-03-18 08:03:08 51°13.997 2°55.515 8.31776 2.512119 24.104879 24.669349
2003-03-18 08:03:13 51°14.01 2°55.506 7.949921 2.542087 24.429827 24.163708
2003-03-18 08:03:18 51°14.022 2°55.497 7.881673 2.559017 24.617096 23.860324
2003-03-18 08:03:23 51°14.034 2°55.487 7.881673 2.559017 24.617096 23.860324
2003-03-18 08:03:27 51°14.044 2°55.48 8.298984 2.579313 24.839639 23.792905
2003-03-18 08:03:33 51°14.058 2°55.469 7.975719 2.59004 24.963056 23.085007
2003-03-18 08:03:38 51°14.07 2°55.46 7.821018 2.62096 25.297629 22.91646
2003-03-18 08:03:43 51°14.082 2°55.451 8.024382 2.626534 25.365586 21.837759
2003-03-18 08:03:48 51°14.095 2°55.442 7.65291 2.628112 25.386116 21.332118
2003-03-18 08:03:53 51°14.107 2°55.433 7.65291 2.628112 25.386116 21.332118
2003-03-18 08:03:58 51°14.12 2°55.423 8.323439 2.619067 25.288218 20.995024
2003-03-18 08:04:03 51°14.132 2°55.414 7.771957 2.6055 25.141797 20.590512
2003-03-18 08:04:08 51°14.144 2°55.404 8.196055 2.59635 25.042313 19.815195
2003-03-18 08:04:13 51°14.156 2°55.394 8.122372 2.602134 25.101752 19.107298
2003-03-18 08:04:18 51°14.168 2°55.385 8.752779 2.602555 25.107457 18.43311
2003-03-18 08:04:22 51°14.177 2°55.376 8.752779 2.602555 25.107457 18.43311
2003-03-18 08:04:28 51°14.19 2°55.363 7.731117 2.602555 25.110575 18.129725
2003-03-18 08:04:33 51°14.201 2°55.351 7.64362 2.611284 25.205645 17.590375
2003-03-18 08:04:38 51°14.212 2°55.338 7.683349 2.606551 25.156697 17.624084
2003-03-18 08:04:43 51°14.222 2°55.325 7.973783 2.610127 25.195876 17.994888
2003-03-18 08:04:47 51°14.23 2°55.314 8.025108 2.611705 25.215743 18.3994
2003-03-18 08:04:53 51°14.242 2°55.297 8.025108 2.611705 25.215743 18.3994
2003-03-18 08:04:58 51°14.251 2°55.283 8.190268 2.620644 25.316906 18.736494
2003-03-18 08:05:02 51°14.258 2°55.271 8.163253 2.641995 25.553883 19.141007
2003-03-18 08:05:08 51°14.269 2°55.252 7.98438 2.651566 25.663338 19.612939
2003-03-18 08:05:13 51°14.277 2°55.236 7.555954 2.655353 25.714508 19.747777
2003-03-18 08:05:18 51°14.285 2°55.219 7.480605 2.65367 25.702984 20.556802
2003-03-18 08:05:23 51°14.293 2°55.202 7.480605 2.65367 25.702984 20.556802
2003-03-18 08:05:28 51°14.301 2°55.185 8.03149 2.638104 25.53536 21.80405
2003-03-18 08:05:33 51°14.309 2°55.169 7.568861 2.639576 25.556116 23.219845
2003-03-18 08:05:38 51°14.317 2°55.151 7.86403 2.635895 25.525197 23.759195
2003-03-18 08:05:42 51°14.323 2°55.137 7.58605 2.627376 25.440227 24.129999
2003-03-18 08:05:48 51°14.332 2°55.115 7.744037 2.615492 25.315667 24.298546
2003-03-18 08:05:53 51°14.339 2°55.095 7.744037 2.615492 25.315667 24.298546
2003-03-18 08:05:58 51°14.345 2°55.075 7.686897 2.598139 25.133657 24.534512
2003-03-18 08:06:02 51°14.351 2°55.059 7.709108 2.596035 25.109424 24.939024
2003-03-18 08:06:08 51°14.36 2°55.034 7.825723 2.580681 24.949418 24.905315
2003-03-18 08:06:13 51°14.366 2°55.012 7.66711 2.582364 24.969155 25.242409
2003-03-18 08:06:18 51°14.372 2°54.99 7.556588 2.591829 25.078464 25.377247
2003-03-18 08:06:23 51°14.379 2°54.967 7.556588 2.591829 25.078464 25.377247
2003-03-18 08:06:28 51°14.384 2°54.942 7.753119 2.607184 25.262538 25.343537
2003-03-18 08:06:33 51°14.389 2°54.918 7.535688 2.614546 25.353591 24.837896
2003-03-18 08:06:38 51°14.394 2°54.892 7.661518 2.633056 25.562439 24.264836
2003-03-18 08:06:42 51°14.398 2°54.872 8.103491 2.627482 25.510603 23.826614
2003-03-18 08:06:48 51°14.404 2°54.84 8.082141 2.624642 25.481572 23.388392
2003-03-18 08:06:53 51°14.408 2°54.813 8.082141 2.624642 25.481572 23.388392
2003-03-18 08:06:58 51°14.412 2°54.786 7.490455 2.63821 25.632808 23.759195
2003-03-18 08:07:02 51°14.416 2°54.764 7.641771 2.636212 25.621067 23.186136
2003-03-18 08:07:08 51°14.422 2°54.731 7.519314 2.674182 26.04406 22.91646
2003-03-18 08:07:13 51°14.426 2°54.704 7.803116 2.688278 26.218048 22.613076
2003-03-18 08:07:18 51°14.431 2°54.677 7.412588 2.72215 26.603729 21.736631
2003-03-18 08:07:22 51°14.436 2°54.656 7.412588 2.72215 26.603729 21.736631
2003-03-18 08:07:28 51°14.445 2°54.625 8.054839 2.763915 27.073064 20.725349
2003-03-18 08:07:32 51°14.451 2°54.604 7.521751 2.783694 27.305673 19.680358
2003-03-18 08:07:38 51°14.46 2°54.574 7.383437 2.818205 27.692027 19.00617
2003-03-18 08:07:42 51°14.467 2°54.554 7.630193 2.84714 28.01609 18.837623
2003-03-18 08:07:48 51°14.478 2°54.525 7.151511 2.864713 28.218118 18.534238
2003-03-18 08:07:53 51°14.488 2°54.502 7.151511 2.864713 28.218118 18.534238
2003-03-18 08:07:58 51°14.499 2°54.479 7.692196 2.878604 28.379721 18.534238
2003-03-18 08:08:04 51°14.513 2°54.453 7.414346 2.895126 28.578818 18.466819
2003-03-18 08:08:08 51°14.523 2°54.437 7.319423 2.935748 29.03615 18.163435
2003-03-18 08:08:12 51°14.534 2°54.42 7.432747 2.95164 29.228078 17.961178
2003-03-18 08:08:18 51°14.55 2°54.398 7.543386 2.96827 29.426969 17.86005
2003-03-18 08:08:23 51°14.563 2°54.38 7.543386 2.96827 29.426969 17.86005
2003-03-18 08:08:28 51°14.577 2°54.364 7.505861 2.979532 29.556227 17.792631
2003-03-18 08:08:33 51°14.592 2°54.348 7.752924 2.986163 29.62812 17.556665
2003-03-18 08:08:38 51°14.608 2°54.333 7.606397 3.000057 29.782648 17.388118
2003-03-18 08:08:41 51°14.617 2°54.324 7.514635 3.010372 29.901059 17.556665
2003-03-18 08:08:48 51°14.639 2°54.302 7.355103 3.011109 29.913674 17.624084
2003-03-18 08:08:52 51°14.652 2°54.289 7.355103 3.011109 29.913674 17.624084
2003-03-18 08:08:58 51°14.67 2°54.271 7.793799 3.022477 30.042252 17.590375
2003-03-18 08:09:03 51°14.685 2°54.256 7.509322 3.024161 30.063024 17.522956
2003-03-18 08:09:08 51°14.701 2°54.242 7.080002 3.015741 29.979643 17.624084
2003-03-18 08:09:12 51°14.714 2°54.23 7.354761 3.03332 30.179632 17.86005
2003-03-18 08:09:18 51°14.733 2°54.214 7.47129 3.038478 30.246279 17.826341
2003-03-18 08:09:23 51°14.75 2°54.2 7.47129 3.038478 30.246279 17.826341
2003-03-18 08:09:28 51°14.766 2°54.187 7.673577 3.03753 30.239681 17.758922
2003-03-18 08:09:33 51°14.783 2°54.173 7.711489 3.044583 30.320346 17.994888
2003-03-18 08:09:38 51°14.799 2°54.161 8.018531 3.040057 30.271301 18.062306
2003-03-18 08:09:42 51°14.813 2°54.15 7.257842 3.044688 30.323038 18.197144
2003-03-18 08:09:48 51°14.832 2°54.133 8.011664 3.03753 30.244269 18.3994
2003-03-18 08:09:53 51°14.849 2°54.119 8.011664 3.03753 30.244269 18.3994
2003-03-18 08:09:58 51°14.864 2°54.105 7.80986 3.044478 30.322255 18.871332
2003-03-18 08:10:02 51°14.877 2°54.094 7.770695 3.053005 30.417662 19.309554
2003-03-18 08:10:08 51°14.896 2°54.078 7.622262 3.051004 30.397176 19.57923
2003-03-18 08:10:12 51°14.909 2°54.067 7.416884 3.052057 30.413383 20.354546
2003-03-18 08:10:18 51°14.928 2°54.051 7.572611 3.052373 30.4184 20.590512
2003-03-18 08:10:23 51°14.944 2°54.038 7.572611 3.052373 30.4184 20.590512
2003-03-18 08:10:28 51°14.96 2°54.025 7.218729 3.046373 30.356162 21.298409
2003-03-18 08:10:33 51°14.976 2°54.012 7.490748 3.052689 30.430347 22.073725
2003-03-18 08:10:38 51°14.992 2°54 7.294876 3.041004 30.303181 22.849042
2003-03-18 08:10:43 51°15.009 2°53.987 7.091632 3.04711 30.369655 23.253554
2003-03-18 08:10:48 51°15.025 2°53.973 6.879616 3.037004 30.257606 23.658067
2003-03-18 08:10:53 51°15.041 2°53.96 6.879616 3.037004 30.257606 23.658067
2003-03-18 08:10:58 51°15.057 2°53.946 7.193947 3.048478 30.384729 23.52323
2003-03-18 08:11:02 51°15.069 2°53.935 7.479581 3.049847 30.399804 23.017589
2003-03-18 08:11:08 51°15.088 2°53.918 7.363556 3.05132 30.416809 22.849042
2003-03-18 08:11:13 51°15.104 2°53.905 7.456559 3.052899 30.434206 22.208563
2003-03-18 08:11:18 51°15.12 2°53.892 7.258869 3.047531 30.379674 22.006306
2003-03-18 08:11:23 51°15.136 2°53.879 7.258869 3.047531 30.379674 22.006306
2003-03-18 08:11:28 51°15.153 2°53.865 7.451582 3.049215 30.402078 21.905178
2003-03-18 08:11:33 51°15.169 2°53.852 8.171407 3.055215 30.47052 21.736631
2003-03-18 08:11:38 51°15.185 2°53.839 7.291501 3.04311 30.337114 21.2647
2003-03-18 08:11:41 51°15.195 2°53.831 7.571101 3.054057 30.454672 20.860187
2003-03-18 08:11:48 51°15.218 2°53.812 7.404972 3.057637 30.491036 20.320836
2003-03-18 08:11:52 51°15.231 2°53.801 7.404972 3.057637 30.491036 20.320836
2003-03-18 08:11:58 51°15.251 2°53.785 7.498744 3.062058 30.536682 20.388255
2003-03-18 08:12:03 51°15.267 2°53.772 7.174105 3.070795 30.630694 19.57923
2003-03-18 08:12:08 51°15.283 2°53.757 7.563699 3.063532 30.54829 19.107298
2003-03-18 08:12:13 51°15.299 2°53.742 7.201294 3.071111 30.634177 18.298272
2003-03-18 08:12:18 51°15.315 2°53.727 7.601043 3.076796 30.698427 18.028597
2003-03-18 08:12:22 51°15.328 2°53.714 7.601043 3.076796 30.698427 18.028597
2003-03-18 08:12:28 51°15.347 2°53.697 7.640215 3.077954 30.712756 17.556665
2003-03-18 08:12:33 51°15.363 2°53.682 7.675959 3.076164 30.692236 17.185862
2003-03-18 08:12:38 51°15.379 2°53.669 7.360527 3.086902 30.811495 17.185862
2003-03-18 08:12:42 51°15.393 2°53.658 7.071218 3.086271 30.808423 17.051024
2003-03-18 08:12:48 51°15.412 2°53.641 7.50552 3.080375 30.746473 16.882477
2003-03-18 08:12:52 51°15.426 2°53.628 7.50552 3.080375 30.746473 16.882477
2003-03-18 08:12:58 51°15.445 2°53.61 7.419618 3.091324 30.868114 16.983606
2003-03-18 08:13:03 51°15.461 2°53.596 7.461974 3.083639 30.785609 16.612802
2003-03-18 08:13:08 51°15.477 2°53.582 7.456803 3.088166 30.835585 16.444255
2003-03-18 08:13:13 51°15.494 2°53.567 7.768996 3.086481 30.818549 15.904905
2003-03-18 08:13:18 51°15.51 2°53.553 7.929294 3.092798 30.894558 15.534101
2003-03-18 08:13:23 51°15.527 2°53.538 7.929294 3.092798 30.894558 15.534101
2003-03-18 08:13:28 51°15.543 2°53.522 7.56813 3.097957 30.957037 15.399264
2003-03-18 08:13:33 51°15.559 2°53.507 7.49343 3.094588 30.92216 15.365554
2003-03-18 08:13:38 51°15.576 2°53.491 7.170233 3.100273 30.988129 14.994751
2003-03-18 08:13:43 51°15.592 2°53.475 7.135676 3.095641 30.940065 14.623947
2003-03-18 08:13:48 51°15.608 2°53.46 7.571052 3.100589 30.997904 14.320563
2003-03-18 08:13:53 51°15.625 2°53.444 7.571052 3.100589 30.997904 14.320563
2003-03-18 08:13:58 51°15.641 2°53.429 7.167832 3.091219 30.895896 14.219435
2003-03-18 08:14:02 51°15.654 2°53.417 7.127193 3.096167 30.951373 14.185725
2003-03-18 08:14:08 51°15.673 2°53.398 7.641042 3.097746 30.969617 14.320563
2003-03-18 08:14:13 51°15.69 2°53.383 7.369516 3.100167 30.995604 14.4554
2003-03-18 08:14:18 51°15.706 2°53.371 7.775355 3.093009 30.91646 14.421691
2003-03-18 08:14:22 51°15.72 2°53.361 7.775355 3.093009 30.91646 14.421691
2003-03-18 08:14:28 51°15.74 2°53.348 7.173027 3.09743 30.967695 14.623947
2003-03-18 08:14:33 51°15.757 2°53.338 7.12582 3.096483 30.959573 14.792494
2003-03-18 08:14:38 51°15.775 2°53.33 7.632869 3.093746 30.930094 15.365554
2003-03-18 08:14:43 51°15.792 2°53.321 7.544653 3.091956 30.910308 15.702648
2003-03-18 08:14:48 51°15.81 2°53.313 7.340394 3.090693 30.892427 16.781349
2003-03-18 08:14:53 51°15.827 2°53.307 7.340394 3.090693 30.892427 16.781349
2003-03-18 08:14:58 51°15.845 2°53.3 7.661761 3.085745 30.837744 17.28699
2003-03-18 08:15:02 51°15.859 2°53.294 7.182728 3.088798 30.8707 17.725212
2003-03-18 08:15:08 51°15.879 2°53.283 7.775841 3.069217 30.663726 18.230853
2003-03-18 08:15:13 51°15.897 2°53.275 7.17925 3.079534 30.780821 18.331982
2003-03-18 08:15:18 51°15.914 2°53.265 7.299913 3.069322 30.673443 18.567947
2003-03-18 08:15:22 51°15.928 2°53.258 7.299913 3.069322 30.673443 18.567947
2003-03-18 08:15:28 51°15.948 2°53.246 6.939596 3.061848 30.595539 17.927469
2003-03-18 08:15:33 51°15.966 2°53.236 7.224899 3.07406 30.731241 17.455537
2003-03-18 08:15:38 51°15.983 2°53.226 7.746028 3.065111 30.635473 17.118443
2003-03-18 08:15:43 51°16 2°53.216 7.145972 3.071849 30.709925 16.781349
2003-03-18 08:15:48 51°16.018 2°53.205 7.793168 3.066059 30.647496 16.848768
2003-03-18 08:15:53 51°16.035 2°53.196 7.793168 3.066059 30.647496 16.848768
2003-03-18 08:15:58 51°16.053 2°53.186 7.158716 3.072586 30.720408 16.949896
2003-03-18 08:16:03 51°16.07 2°53.178 7.163422 3.077639 30.775488 16.71393
2003-03-18 08:16:08 51°16.088 2°53.169 7.245998 3.073217 30.725051 16.006033
2003-03-18 08:16:13 51°16.106 2°53.159 7.363653 3.082481 30.826687 15.399264
2003-03-18 08:16:18 51°16.123 2°53.149 7.245019 3.086061 30.863921 15.095879
2003-03-18 08:16:22 51°16.137 2°53.141 7.245019 3.086061 30.863921 15.095879
2003-03-18 08:16:28 51°16.158 2°53.128 7.002763 3.088271 30.88602 14.286853
2003-03-18 08:16:33 51°16.175 2°53.118 7.126311 3.090903 30.910424 13.781212
2003-03-18 08:16:38 51°16.192 2°53.109 7.04898 3.093746 30.939506 13.208153
2003-03-18 08:16:42 51°16.206 2°53.101 7.048342 3.08964 30.891753 12.904768
2003-03-18 08:16:48 51°16.227 2°53.09 7.492064 3.100694 31.01243 12.432836
2003-03-18 08:16:53 51°16.244 2°53.08 7.492064 3.100694 31.01243 12.432836
2003-03-18 08:16:58 51°16.261 2°53.07 7.135333 3.098904 30.993419 12.736221
2003-03-18 08:17:02 51°16.275 2°53.063 7.53905 3.104379 31.053192 12.635093
2003-03-18 08:17:08 51°16.296 2°53.051 7.73408 3.115644 31.176274 12.871059
2003-03-18 08:17:13 51°16.313 2°53.04 7.337461 3.111011 31.124216 13.107024
2003-03-18 08:17:18 51°16.33 2°53.03 7.38119 3.117539 31.195669 12.904768
2003-03-18 08:17:22 51°16.344 2°53.023 7.38119 3.117539 31.195669 12.904768
2003-03-18 08:17:28 51°16.365 2°53.011 7.582301 3.115959 31.175027 13.444118
2003-03-18 08:17:33 51°16.383 2°53.001 7.300305 3.126382 31.287237 13.949759
2003-03-18 08:17:38 51°16.4 2°52.991 7.460657 3.133015 31.359096 13.983469
2003-03-18 08:17:43 51°16.418 2°52.981 7.056295 3.134279 31.372293 14.48911
2003-03-18 08:17:48 51°16.435 2°52.971 7.143913 3.136279 31.392857 14.387982
2003-03-18 08:17:53 51°16.453 2°52.961 7.143913 3.136279 31.392857 14.387982
2003-03-18 08:17:58 51°16.47 2°52.951 7.893981 3.138174 31.413051 14.893623
2003-03-18 08:18:03 51°16.487 2°52.942 7.420399 3.139964 31.43208 15.095879
2003-03-18 08:18:08 51°16.505 2°52.932 7.266111 3.139227 31.42312 15.399264
2003-03-18 08:18:13 51°16.522 2°52.923 7.499621 3.139543 31.429008 15.365554
2003-03-18 08:18:18 51°16.539 2°52.913 7.572513 3.141227 31.448466 15.432973
2003-03-18 08:18:22 51°16.553 2°52.905 7.572513 3.141227 31.448466 15.432973
2003-03-18 08:18:28 51°16.574 2°52.894 7.454461 3.130383 31.327566 15.331845
2003-03-18 08:18:32 51°16.587 2°52.886 7.16989 3.141017 31.444539 15.432973
2003-03-18 08:18:38 51°16.608 2°52.875 7.375378 3.135016 31.375683 15.230717
2003-03-18 08:18:42 51°16.622 2°52.867 6.975833 3.134594 31.370225 15.197007
2003-03-18 08:18:48 51°16.643 2°52.857 7.095213 3.139227 31.423916 15.095879
2003-03-18 08:18:53 51°16.66 2°52.847 7.095213 3.139227 31.423916 15.095879
2003-03-18 08:18:58 51°16.677 2°52.838 7.415761 3.138279 31.41581 15.197007
2003-03-18 08:19:03 51°16.694 2°52.828 7.052123 3.130804 31.334611 15.298136
2003-03-18 08:19:08 51°16.711 2°52.819 7.25608 3.133752 31.368053 15.365554
2003-03-18 08:19:13 51°16.728 2°52.809 7.578357 3.129751 31.324541 15.500392
2003-03-18 08:19:18 51°16.746 2°52.8 7.418934 3.131015 31.337737 15.399264
2003-03-18 08:19:23 51°16.763 2°52.79 7.418934 3.131015 31.337737 15.399264
2003-03-18 08:19:28 51°16.78 2°52.781 7.49967 3.129541 31.320622 15.567811
2003-03-18 08:19:33 51°16.797 2°52.772 7.340052 3.123013 31.249147 15.736358
2003-03-18 08:19:38 51°16.814 2°52.763 7.781034 3.125435 31.275954 16.140871
2003-03-18 08:19:42 51°16.827 2°52.756 7.062039 3.125014 31.269706 16.17458
2003-03-18 08:19:48 51°16.847 2°52.745 7.46134 3.119223 31.207195 15.837486
2003-03-18 08:19:53 51°16.863 2°52.736 7.46134 3.119223 31.207195 15.837486
2003-03-18 08:19:58 51°16.88 2°52.726 7.892576 3.118697 31.200578 15.904905
2003-03-18 08:20:02 51°16.893 2°52.719 7.619489 3.11417 31.148114 15.871195
2003-03-18 08:20:08 51°16.913 2°52.708 7.500109 3.118276 31.192755 16.140871
2003-03-18 08:20:13 51°16.93 2°52.699 7.055166 3.112801 31.129816 15.668939
2003-03-18 08:20:18 51°16.946 2°52.689 7.293898 3.108695 31.085976 15.938614
2003-03-18 08:20:22 51°16.96 2°52.682 7.293898 3.108695 31.085976 15.938614
2003-03-18 08:20:28 51°16.98 2°52.67 7.287148 3.101326 31.007624 15.938614
2003-03-18 08:20:33 51°16.997 2°52.661 7.333649 3.100694 31.001425 15.567811
2003-03-18 08:20:38 51°17.014 2°52.652 7.286708 3.106274 31.061557 15.63523
2003-03-18 08:20:42 51°17.028 2°52.644 7.645225 3.103852 31.034778 15.668939
2003-03-18 08:20:48 51°17.049 2°52.632 7.206976 3.095009 30.938571 15.702648
2003-03-18 08:20:53 51°17.066 2°52.623 7.206976 3.095009 30.938571 15.702648
2003-03-18 08:20:58 51°17.083 2°52.613 7.839982 3.09722 30.964582 15.871195
2003-03-18 08:21:03 51°17.1 2°52.604 7.204821 3.096272 30.954891 15.736358
2003-03-18 08:21:08 51°17.117 2°52.594 7.32133 3.092693 30.916887 15.904905
2003-03-18 08:21:13 51°17.134 2°52.585 7.720867 3.090061 30.888577 15.736358
2003-03-18 08:21:18 51°17.151 2°52.576 7.32001 3.089745 30.886652 15.63523
2003-03-18 08:21:24 51°17.171 2°52.565 7.32001 3.089745 30.886652 15.63523
2003-03-18 08:21:29 51°17.188 2°52.555 7.438555 3.078165 30.761018 15.63523
2003-03-18 08:21:34 51°17.205 2°52.546 7.315805 3.083113 30.815692 15.702648
2003-03-18 08:21:38 51°17.218 2°52.538 7.674647 3.079218 30.77343 15.60152
2003-03-18 08:21:44 51°17.238 2°52.526 7.487432 3.085113 30.840144 15.500392
2003-03-18 08:21:49 51°17.255 2°52.517 6.949137 3.080692 30.793619 15.399264
2003-03-18 08:21:54 51°17.272 2°52.506 6.949137 3.080692 30.793619 15.399264
2003-03-18 08:21:58 51°17.286 2°52.499 7.231508 3.081744 30.806035 15.331845
2003-03-18 08:22:03 51°17.303 2°52.488 7.351389 3.076902 30.752518 15.534101
2003-03-18 08:22:08 51°17.32 2°52.479 7.386905 3.070796 30.68817 15.466683
2003-03-18 08:22:14 51°17.341 2°52.469 7.34748 3.077639 30.765342 15.534101
2003-03-18 08:22:19 51°17.358 2°52.461 7.307787 3.077428 30.764575 15.770067
2003-03-18 08:22:24 51°17.375 2°52.453 7.307787 3.077428 30.764575 15.770067
2003-03-18 08:22:28 51°17.389 2°52.448 7.506885 3.071322 30.698656 15.770067
2003-03-18 08:22:34 51°17.41 2°52.439 7.106447 3.072165 30.708741 15.534101
2003-03-18 08:22:38 51°17.424 2°52.434 7.108213 3.070375 30.688965 15.837486
2003-03-18 08:22:43 51°17.441 2°52.427 7.185423 3.069217 30.676948 15.871195
2003-03-18 08:22:49 51°17.462 2°52.418 7.624354 3.069428 30.682388 15.938614
2003-03-18 08:22:54 51°17.48 2°52.411 7.624354 3.069428 30.682388 15.938614
2003-03-18 08:22:58 51°17.494 2°52.404 7.741075 3.063111 30.611822 16.208289
2003-03-18 08:23:04 51°17.515 2°52.396 7.585076 3.067112 30.658351 16.17458
2003-03-18 08:23:08 51°17.529 2°52.39 7.426061 3.065427 30.63974 16.039742
2003-03-18 08:23:14 51°17.55 2°52.381 7.26479 3.061532 30.596707 16.241999
2003-03-18 08:23:18 51°17.563 2°52.375 7.260729 3.068375 30.673867 16.343127
2003-03-18 08:23:24 51°17.584 2°52.366 7.260729 3.068375 30.673867 16.343127
2003-03-18 08:23:28 51°17.598 2°52.36 7.462071 3.06248 30.608727 16.309418
2003-03-18 08:23:34 51°17.618 2°52.352 7.342007 3.063954 30.625787 16.275708
2003-03-18 08:23:38 51°17.632 2°52.346 6.977651 3.065322 30.640131 16.410546
2003-03-18 08:23:44 51°17.653 2°52.337 7.496111 3.062585 30.608337 16.410546
2003-03-18 08:23:49 51°17.67 2°52.33 7.336386 3.057532 30.55252 16.343127
2003-03-18 08:23:54 51°17.687 2°52.322 7.336386 3.057532 30.55252 16.343127
2003-03-18 08:23:58 51°17.701 2°52.316 7.535298 3.067533 30.66456 16.410546
2003-03-18 08:24:04 51°17.722 2°52.307 7.818447 3.067217 30.663404 16.275708
2003-03-18 08:24:08 51°17.736 2°52.301 7.374352 3.061638 30.601752 16.343127
2003-03-18 08:24:14 51°17.757 2°52.293 7.815197 3.059216 30.57733 16.343127
2003-03-18 08:24:18 51°17.771 2°52.286 7.377722 3.063111 30.622697 16.107161
2003-03-18 08:24:24 51°17.792 2°52.277 7.377722 3.063111 30.622697 16.107161
2003-03-18 08:24:29 51°17.809 2°52.269 7.299278 3.059743 30.585473 16.140871
2003-03-18 08:24:34 51°17.826 2°52.262 7.375817 3.056795 30.555233 15.871195
2003-03-18 08:24:38 51°17.839 2°52.256 7.894805 3.065322 30.651018 15.736358
2003-03-18 08:24:44 51°17.86 2°52.247 7.21917 3.062164 30.614558 15.904905
2003-03-18 08:24:49 51°17.877 2°52.239 6.937432 3.065217 30.646743 15.60152
2003-03-18 08:24:53 51°17.891 2°52.233 6.937432 3.065217 30.646743 15.60152
2003-03-18 08:24:58 51°17.908 2°52.225 7.139599 3.06448 30.639376 15.399264
2003-03-18 08:25:04 51°17.929 2°52.217 7.180229 3.06269 30.618821 15.365554
2003-03-18 08:25:08 51°17.943 2°52.211 6.981338 3.063322 30.626578 15.230717
2003-03-18 08:25:14 51°17.964 2°52.202 7.419227 3.057743 30.565701 15.230717
2003-03-18 08:25:18 51°17.978 2°52.194 7.580256 3.065848 30.654502 15.197007
2003-03-18 08:25:24 51°17.999 2°52.185 7.580256 3.065848 30.654502 15.197007
2003-03-18 08:25:28 51°18.013 2°52.178 7.980654 3.068691 30.684364 15.129589
2003-03-18 08:25:34 51°18.033 2°52.168 7.584638 3.067638 30.672727 15.02846
2003-03-18 08:25:38 51°18.047 2°52.162 7.70454 3.071638 30.716169 15.230717
2003-03-18 08:25:44 51°18.068 2°52.152 7.743163 3.069743 30.696001 14.927332
2003-03-18 08:25:48 51°18.082 2°52.146 7.263224 3.071744 30.717333 15.264426
2003-03-18 08:25:54 51°18.103 2°52.137 7.263224 3.071744 30.717333 15.264426
2003-03-18 08:25:58 51°18.117 2°52.131 7.822473 3.070059 30.698713 15.095879
2003-03-18 08:26:04 51°18.138 2°52.121 7.144452 3.063954 30.63045 15.06217
2003-03-18 08:26:08 51°18.152 2°52.114 7.106153 3.071533 30.712667 14.994751
2003-03-18 08:26:14 51°18.173 2°52.104 7.425963 3.071638 30.712273 15.230717
2003-03-18 08:26:18 51°18.187 2°52.097 7.546845 3.075639 30.756496 15.129589
2003-03-18 08:26:24 51°18.207 2°52.087 7.546845 3.075639 30.756496 15.129589
2003-03-18 08:26:29 51°18.225 2°52.079 7.188313 3.071007 30.703733 15.197007
2003-03-18 08:26:34 51°18.242 2°52.07 7.385244 3.073849 30.735151 14.859913
2003-03-18 08:26:38 51°18.256 2°52.063 7.224213 3.077428 30.775503 14.859913
2003-03-18 08:26:44 51°18.277 2°52.053 7.504594 3.070059 30.69404 14.758785
2003-03-18 08:26:48 51°18.291 2°52.045 7.664193 3.073217 30.727389 14.657657
2003-03-18 08:26:54 51°18.312 2°52.034 7.664193 3.073217 30.727389 14.657657
2003-03-18 08:26:58 51°18.326 2°52.026 6.859774 3.073533 30.73166 14.623947
2003-03-18 08:27:04 51°18.346 2°52.016 7.545773 3.075849 30.757263 14.286853
2003-03-18 08:27:09 51°18.364 2°52.008 7.384951 3.067849 30.668828 14.48911
2003-03-18 08:27:14 51°18.381 2°52.001 7.224899 3.072165 30.716532 14.253144
2003-03-18 08:27:18 51°18.395 2°51.994 8.020562 3.063848 30.626955 14.219435
2003-03-18 08:27:23 51°18.413 2°51.985 8.020562 3.063848 30.626955 14.219435
2003-03-18 08:27:28 51°18.43 2°51.976 7.142197 3.067006 30.661077 14.219435
2003-03-18 08:27:34 51°18.451 2°51.965 7.541632 3.071954 30.715764 14.387982
2003-03-18 08:27:38 51°18.465 2°51.958 7.141952 3.074902 30.746789 14.152016
2003-03-18 08:27:44 51°18.486 2°51.947 7.624354 3.071428 30.709166 14.286853
2003-03-18 08:27:49 51°18.503 2°51.937 6.860463 3.073112 30.727785 14.118306
2003-03-18 08:27:54 51°18.521 2°51.927 6.860463 3.073112 30.727785 14.118306
2003-03-18 08:27:58 51°18.534 2°51.919 7.463827 3.069007 30.683183 14.185725
2003-03-18 08:28:04 51°18.556 2°51.909 7.026146 3.061217 30.597876 14.522819
2003-03-18 08:28:08 51°18.57 2°51.903 7.549622 3.070901 30.706464 14.590238
2003-03-18 08:28:14 51°18.591 2°51.892 7.229746 3.068691 30.681249 14.286853
2003-03-18 08:28:18 51°18.605 2°51.885 7.112922 3.066796 30.659528 14.623947
2003-03-18 08:28:24 51°18.626 2°51.874 7.112922 3.066796 30.659528 14.623947
2003-03-18 08:28:28 51°18.639 2°51.867 7.356569 3.064585 30.635098 14.826204
2003-03-18 08:28:34 51°18.66 2°51.856 7.434895 3.067427 30.664953 14.792494
2003-03-18 08:28:38 51°18.674 2°51.848 7.477289 3.069954 30.692097 14.994751
2003-03-18 08:28:44 51°18.694 2°51.837 7.233858 3.072165 30.716532 14.725076
2003-03-18 08:28:49 51°18.711 2°51.827 7.112824 3.071112 30.702559 14.522819
2003-03-18 08:28:54 51°18.728 2°51.818 7.112824 3.071112 30.702559 14.522819
2003-03-18 08:28:58 51°18.741 2°51.81 7.35608 3.061848 30.597867 14.556529
2003-03-18 08:29:02 51°18.755 2°51.803 7.395353 3.069533 30.681216 14.219435
2003-03-18 08:29:08 51°18.776 2°51.791 7.590967 3.06848 30.668028 14.084597
2003-03-18 08:29:14 51°18.796 2°51.78 6.989594 3.071744 30.705646 13.882341
2003-03-18 08:29:18 51°18.81 2°51.773 6.98296 3.061216 30.589338 14.017178
2003-03-18 08:29:22 51°18.824 2°51.765 6.98296 3.061216 30.589338 14.017178
2003-03-18 08:29:28 51°18.844 2°51.754 7.503083 3.065217 30.633528 13.578956
2003-03-18 08:29:34 51°18.865 2°51.743 7.02035 3.061111 30.588176 13.3767
2003-03-18 08:29:38 51°18.879 2°51.736 6.934186 3.058058 30.554458 13.410409
2003-03-18 08:29:44 51°18.9 2°51.726 6.97131 3.067533 30.659893 13.107024
2003-03-18 08:29:48 51°18.914 2°51.718 7.689668 3.055953 30.53508 13.174443
2003-03-18 08:29:52 51°18.928 2°51.711 7.689668 3.055953 30.53508 13.174443
2003-03-18 08:29:58 51°18.949 2°51.699 7.722567 3.062901 30.614932 12.972187
2003-03-18 08:30:02 51°18.963 2°51.691 7.282501 3.055848 30.537016 12.80364
2003-03-18 08:30:08 51°18.983 2°51.679 7.797972 3.05848 30.568413 12.837349
2003-03-18 08:30:14 51°19.003 2°51.668 7.596322 3.05069 30.486237 12.668802
2003-03-18 08:30:18 51°19.017 2°51.66 7.10993 3.054164 30.528482 12.601383
2003-03-18 08:30:23 51°19.034 2°51.651 7.10993 3.054164 30.528482 12.601383
2003-03-18 08:30:28 51°19.051 2°51.642 7.308227 3.053637 30.526541 12.500255
2003-03-18 08:30:33 51°19.068 2°51.632 7.419862 3.049742 30.488926 12.567674
2003-03-18 08:30:38 51°19.086 2°51.622 7.177486 3.0489 30.481943 12.668802
2003-03-18 08:30:44 51°19.106 2°51.61 7.087118 3.049111 30.485818 12.972187
2003-03-18 08:30:48 51°19.12 2°51.603 7.12381 3.044058 30.433081 13.073315
2003-03-18 08:30:54 51°19.14 2°51.591 7.12381 3.044058 30.433081 13.073315
2003-03-18 08:30:58 51°19.154 2°51.583 7.279762 3.044584 30.440442 12.972187
2003-03-18 08:31:04 51°19.174 2°51.571 7.115865 3.042374 30.422198 13.039606
2003-03-18 08:31:09 51°19.191 2°51.561 7.148668 3.047637 30.48424 13.275571
2003-03-18 08:31:14 51°19.208 2°51.551 7.509127 3.045216 30.462119 12.972187
2003-03-18 08:31:18 51°19.222 2°51.544 7.105123 3.04069 30.417494 13.039606
2003-03-18 08:31:24 51°19.242 2°51.533 7.105123 3.04069 30.417494 13.039606
2003-03-18 08:31:29 51°19.258 2°51.524 7.302359 3.034163 30.349213 12.668802
2003-03-18 08:31:34 51°19.275 2°51.514 7.17778 3.044164 30.46519 12.601383
2003-03-18 08:31:38 51°19.289 2°51.506 7.416689 3.040479 30.427539 12.466546
2003-03-18 08:31:44 51°19.31 2°51.495 7.414199 3.039953 30.427133 12.668802
2003-03-18 08:31:48 51°19.323 2°51.486 7.498744 3.043322 30.46517 12.365418
2003-03-18 08:31:54 51°19.344 2°51.474 7.498744 3.043322 30.46517 12.365418
2003-03-18 08:31:58 51°19.357 2°51.467 7.174791 3.040164 30.433331 12.163161
2003-03-18 08:32:04 51°19.378 2°51.455 7.351243 3.036058 30.391785 11.826067
2003-03-18 08:32:08 51°19.392 2°51.446 7.570565 3.037427 30.410017 11.758648
2003-03-18 08:32:14 51°19.412 2°51.434 7.092515 3.025848 30.284258 11.556392
2003-03-18 08:32:18 51°19.426 2°51.426 6.975341 3.031322 30.344796 11.792358
2003-03-18 08:32:24 51°19.447 2°51.415 6.975341 3.031322 30.344796 11.792358
2003-03-18 08:32:28 51°19.461 2°51.407 6.976668 3.031216 30.345175 11.826067
2003-03-18 08:32:32 51°19.474 2°51.399 7.176849 3.033427 30.370402 11.522683
2003-03-18 08:32:38 51°19.495 2°51.388 7.421863 3.031216 30.345947 11.455264
2003-03-18 08:32:44 51°19.516 2°51.377 7.577675 3.027848 30.30946 11.11817
2003-03-18 08:32:49 51°19.533 2°51.368 7.058161 3.032164 30.3572 10.848494
2003-03-18 08:32:53 51°19.547 2°51.361 7.058161 3.032164 30.3572 10.848494
2003-03-18 08:32:58 51°19.564 2°51.351 7.055903 3.021743 30.241173 10.477691
2003-03-18 08:33:04 51°19.585 2°51.341 7.49538 3.028374 30.315281 10.275435
2003-03-18 08:33:08 51°19.599 2°51.334 7.211139 3.019743 30.216755 10.073178
2003-03-18 08:33:14 51°19.62 2°51.323 7.13244 3.023532 30.258651 9.837212
2003-03-18 08:33:18 51°19.634 2°51.316 7.648387 3.024795 30.272618 9.904631
2003-03-18 08:33:22 51°19.647 2°51.309 7.648387 3.024795 30.272618 9.904631
2003-03-18 08:33:29 51°19.671 2°51.295 7.166215 3.019637 30.21636 9.634956
2003-03-18 08:33:34 51°19.688 2°51.284 7.722567 3.020058 30.221783 9.567537
2003-03-18 08:33:39 51°19.705 2°51.274 7.207515 3.021216 30.236123 9.668665
2003-03-18 08:33:44 51°19.723 2°51.265 7.323237 3.016585 30.187223 9.533828
2003-03-18 08:33:49 51°19.74 2°51.256 6.960397 3.022585 30.255103 9.736084
2003-03-18 08:33:53 51°19.754 2°51.248 6.960397 3.022585 30.255103 9.736084
2003-03-18 08:33:59 51°19.775 2°51.237 7.200854 3.014059 30.163133 9.904631
2003-03-18 08:34:04 51°19.792 2°51.227 7.641966 3.023743 30.273301 10.241725
2003-03-18 08:34:08 51°19.806 2°51.22 7.570906 3.016164 30.188713 10.174306
2003-03-18 08:34:14 51°19.827 2°51.209 7.403068 3.022585 30.260493 10.208016
2003-03-18 08:34:18 51°19.841 2°51.202 7.563553 3.031953 30.365687 10.106888
2003-03-18 08:34:24 51°19.862 2°51.191 7.563553 3.031953 30.365687 10.106888
2003-03-18 08:34:29 51°19.879 2°51.183 7.482995 3.031111 30.357914 10.039469
2003-03-18 08:34:34 51°19.896 2°51.176 6.963248 3.027427 30.317145 9.870922
2003-03-18 08:34:38 51°19.91 2°51.17 7.442312 3.024269 30.280664 9.803503
2003-03-18 08:34:44 51°19.931 2°51.16 6.998832 3.027848 30.32026 9.769794
2003-03-18 08:34:48 51°19.945 2°51.153 6.954202 3.029427 30.337731 9.533828
2003-03-18 08:34:53 51°19.962 2°51.144 6.954202 3.029427 30.337731 9.533828
2003-03-18 08:34:58 51°19.98 2°51.135 7.432357 3.022374 30.258165 9.264153
2003-03-18 08:35:04 51°20.001 2°51.123 7.431088 3.02248 30.259329 9.466409
2003-03-18 08:35:08 51°20.015 2°51.116 7.432162 3.013532 30.160385 9.129315
2003-03-18 08:35:14 51°20.036 2°51.104 7.164108 3.013427 30.161524 9.39899
2003-03-18 08:35:18 51°20.05 2°51.097 7.59121 3.023006 30.269773 9.500118
2003-03-18 08:35:24 51°20.07 2°51.086 7.59121 3.023006 30.269773 9.500118
2003-03-18 08:35:28 51°20.084 2°51.079 7.110911 3.01848 30.222782 9.769794
2003-03-18 08:35:32 51°20.099 2°51.073 7.707602 3.02048 30.247986 9.769794
2003-03-18 08:35:38 51°20.12 2°51.062 7.190126 3.037848 30.441781 9.904631
2003-03-18 08:35:44 51°20.141 2°51.051 7.307053 3.040585 30.473642 9.938341
2003-03-18 08:35:48 51°20.155 2°51.043 7.225339 3.04069 30.473256 10.106888
2003-03-18 08:35:53 51°20.173 2°51.033 7.225339 3.04069 30.473256 10.106888
2003-03-18 08:35:58 51°20.19 2°51.024 7.747631 3.042059 30.488413 9.736084
2003-03-18 08:36:04 51°20.211 2°51.012 7.348213 3.04269 30.495408 9.500118
2003-03-18 08:36:08 51°20.225 2°51.004 7.125085 3.035111 30.411475 9.736084
2003-03-18 08:36:14 51°20.246 2°50.992 7.785985 3.037006 30.43323 9.466409
2003-03-18 08:36:18 51°20.26 2°50.985 6.909342 3.037638 30.441775 9.297862
2003-03-18 08:36:24 51°20.281 2°50.974 6.909342 3.037638 30.441775 9.297862
2003-03-18 08:36:28 51°20.295 2°50.967 7.108066 3.029322 30.350472 9.365281
2003-03-18 08:36:32 51°20.31 2°50.96 6.944318 3.039217 30.460813 9.39899
2003-03-18 08:36:38 51°20.331 2°50.949 7.507226 3.033217 30.393592 9.365281
2003-03-18 08:36:44 51°20.352 2°50.936 7.066506 3.039743 30.467419 9.163024
2003-03-18 08:36:49 51°20.37 2°50.927 7.587754 3.039533 30.465087 9.196734
2003-03-18 08:36:53 51°20.384 2°50.92 7.587754 3.039533 30.465087 9.196734
2003-03-18 08:36:59 51°20.405 2°50.908 7.066997 3.035638 30.421176 8.994477
2003-03-18 08:37:04 51°20.422 2°50.898 7.42855 3.031532 30.375718 9.061896
2003-03-18 08:37:08 51°20.436 2°50.89 7.350119 3.038375 30.452262 8.927059
2003-03-18 08:37:13 51°20.454 2°50.881 7.308227 3.038585 30.453818 9.230443
2003-03-18 08:37:18 51°20.472 2°50.872 7.863982 3.033006 30.392809 9.230443
2003-03-18 08:37:24 51°20.493 2°50.861 7.863982 3.033006 30.392809 9.230443
2003-03-18 08:37:29 51°20.511 2°50.851 7.023985 3.043006 30.502013 9.163024
2003-03-18 08:37:34 51°20.529 2°50.841 7.503473 3.043427 30.507454 9.061896
2003-03-18 08:37:38 51°20.544 2°50.833 7.665116 3.04627 30.538165 8.994477
2003-03-18 08:37:42 51°20.558 2°50.825 7.307249 3.043322 30.505511 8.994477
2003-03-18 08:37:49 51°20.583 2°50.81 7.743552 3.051533 30.598046 8.724802
2003-03-18 08:37:53 51°20.597 2°50.802 7.743552 3.051533 30.598046 8.724802
2003-03-18 08:37:58 51°20.615 2°50.792 7.501815 3.05227 30.603874 8.82593
2003-03-18 08:38:04 51°20.636 2°50.78 7.380751 3.051954 30.603492 8.85964
2003-03-18 08:38:08 51°20.65 2°50.771 7.341029 3.048901 30.575111 8.657383
2003-03-18 08:38:14 51°20.671 2°50.759 7.499183 3.050586 30.594559 8.556255
2003-03-18 08:38:18 51°20.686 2°50.751 6.979273 3.05427 30.628381 8.421418
2003-03-18 08:38:24 51°20.707 2°50.74 6.979273 3.05427 30.628381 8.421418
2003-03-18 08:38:28 51°20.721 2°50.732 7.419764 3.046796 30.54633 8.28658
2003-03-18 08:38:32 51°20.735 2°50.725 7.61545 3.051638 30.603109 8.050614
2003-03-18 08:38:38 51°20.757 2°50.713 7.574315 3.044059 30.521447 8.185452
2003-03-18 08:38:44 51°20.778 2°50.7 7.691953 3.04048 30.481015 8.050614
2003-03-18 08:38:49 51°20.795 2°50.69 7.16891 3.042796 30.508227 7.983195
2003-03-18 08:38:54 51°20.813 2°50.68 7.16891 3.042796 30.508227 7.983195
2003-03-18 08:38:58 51°20.826 2°50.673 7.609853 3.038796 30.463908 7.882067
2003-03-18 08:39:04 51°20.847 2°50.66 7.087068 3.042901 30.510948 7.814648
2003-03-18 08:39:08 51°20.861 2°50.652 7.165039 3.042691 30.51017 7.814648
2003-03-18 08:39:14 51°20.882 2°50.639 7.006006 3.035638 30.432801 7.679811
2003-03-18 08:39:18 51°20.896 2°50.631 7.085547 3.038691 30.468175 7.578683
2003-03-18 08:39:24 51°20.916 2°50.617 7.085547 3.038691 30.468175 7.578683
2003-03-18 08:39:29 51°20.934 2°50.608 7.799137 3.034059 30.41686 7.612392
2003-03-18 08:39:34 51°20.952 2°50.598 7.482556 3.03269 30.404799 7.477554
2003-03-18 08:39:38 51°20.966 2°50.59 7.483385 3.038796 30.474 7.342717
2003-03-18 08:39:42 51°20.98 2°50.58 7.120867 3.037006 30.454169 7.376426
2003-03-18 08:39:49 51°21.004 2°50.564 7.033808 3.038164 30.468553 7.275298
2003-03-18 08:39:53 51°21.017 2°50.555 7.033808 3.038164 30.468553 7.275298
2003-03-18 08:39:58 51°21.035 2°50.543 7.42977 3.03827 30.46972 7.17417
2003-03-18 08:40:04 51°21.056 2°50.531 6.899058 3.034796 30.431225 6.904494
2003-03-18 08:40:08 51°21.07 2°50.522 7.739229 3.035638 30.44366 6.870785
2003-03-18 08:40:14 51°21.09 2°50.507 7.016666 3.036585 30.454936 6.971913
2003-03-18 08:40:18 51°21.104 2°50.498 7.215889 3.032691 30.414099 6.971913
2003-03-18 08:40:24 51°21.125 2°50.485 7.215889 3.032691 30.414099 6.971913
2003-03-18 08:40:29 51°21.143 2°50.474 7.37318 3.029743 30.384537 6.870785
2003-03-18 08:40:33 51°21.157 2°50.465 7.369027 3.039007 30.490319 6.904494
2003-03-18 08:40:38 51°21.175 2°50.456 6.728899 3.038059 30.486034 6.837076
2003-03-18 08:40:44 51°21.196 2°50.443 7.085302 3.039744 30.507823 6.803366
2003-03-18 08:40:49 51°21.213 2°50.432 7.241103 3.035743 30.46657 6.735947
2003-03-18 08:40:54 51°21.231 2°50.422 7.241103 3.035743 30.46657 6.735947
2003-03-18 08:40:58 51°21.246 2°50.414 7.157589 3.034796 30.45684 6.837076
2003-03-18 08:41:04 51°21.267 2°50.401 8.006295 3.033849 30.449441 6.870785
2003-03-18 08:41:08 51°21.281 2°50.392 6.871985 3.040165 30.521056 6.870785
2003-03-18 08:41:14 51°21.303 2°50.38 7.234103 3.040796 30.529622 6.735947
2003-03-18 08:41:18 51°21.317 2°50.372 7.157148 3.039112 30.514827 6.837076
2003-03-18 08:41:22 51°21.331 2°50.364 7.157148 3.039112 30.514827 6.837076
2003-03-18 08:41:29 51°21.356 2°50.35 7.232193 3.03827 30.509376 6.769657
2003-03-18 08:41:34 51°21.374 2°50.339 7.158569 3.04006 30.532352 6.803366
2003-03-18 08:41:38 51°21.388 2°50.33 7.360527 3.030165 30.424883 6.668529
2003-03-18 08:41:42 51°21.402 2°50.322 7.643036 3.037638 30.507817 6.803366
2003-03-18 08:41:48 51°21.423 2°50.309 6.959954 3.036165 30.49224 6.668529
2003-03-18 08:41:54 51°21.445 2°50.297 6.959954 3.036165 30.49224 6.668529
2003-03-18 08:41:58 51°21.459 2°50.289 7.322503 3.03227 30.449796 6.60111
2003-03-18 08:42:04 51°21.481 2°50.279 7.477192 3.028375 30.40503 6.432563
2003-03-18 08:42:08 51°21.495 2°50.271 7.320352 3.038481 30.517943 6.398853
2003-03-18 08:42:12 51°21.509 2°50.264 7.038424 3.040165 30.535079 6.466272
2003-03-18 08:42:18 51°21.53 2°50.253 7.329885 3.039428 30.526121 6.499982
2003-03-18 08:42:24 51°21.551 2°50.242 7.329885 3.039428 30.526121 6.499982
2003-03-18 08:42:29 51°21.569 2°50.232 7.332329 3.05227 30.66714 6.365144
2003-03-18 08:42:34 51°21.586 2°50.223 7.896792 3.058692 30.738463 6.499982
2003-03-18 08:42:38 51°21.6 2°50.215 6.904028 3.066061 30.820337 6.230306
2003-03-18 08:42:44 51°21.621 2°50.204 7.629561 3.069008 30.853095 6.466272
2003-03-18 08:42:48 51°21.635 2°50.196 6.992051 3.073009 30.895194 6.432563
2003-03-18 08:42:54 51°21.657 2°50.185 6.992051 3.073009 30.895194 6.432563
2003-03-18 08:42:58 51°21.67 2°50.178 7.394279 3.076377 30.928695 6.129178
2003-03-18 08:43:04 51°21.691 2°50.166 7.117091 3.081115 30.978988 6.331435
2003-03-18 08:43:09 51°21.708 2°50.157 7.038375 3.086273 31.031593 6.297725
2003-03-18 08:43:14 51°21.725 2°50.148 7.323579 3.086799 31.031903 5.994341
2003-03-18 08:43:18 51°21.739 2°50.14 7.402043 3.09838 31.157497 5.960631
2003-03-18 08:43:24 51°21.759 2°50.128 7.402043 3.09838 31.157497 5.960631
2003-03-18 08:43:28 51°21.773 2°50.119 7.359403 3.104907 31.225324 5.859503
2003-03-18 08:43:33 51°21.79 2°50.11 7.561994 3.109013 31.26781 5.893212
2003-03-18 08:43:39 51°21.81 2°50.098 7.717903 3.10796 31.255302 6.095469
2003-03-18 08:43:44 51°21.828 2°50.089 7.277609 3.117646 31.360669 5.994341
2003-03-18 08:43:48 51°21.841 2°50.081 7.39755 3.119962 31.382444 6.129178
2003-03-18 08:43:54 51°21.862 2°50.07 7.39755 3.119962 31.382444 6.129178
2003-03-18 08:43:58 51°21.876 2°50.063 7.281229 3.124068 31.42814 6.162888
2003-03-18 08:44:04 51°21.896 2°50.052 7.43792 3.122805 31.412477 6.365144
2003-03-18 08:44:08 51°21.91 2°50.045 7.119494 3.127121 31.461322 6.466272
2003-03-18 08:44:14 51°21.931 2°50.034 6.917067 3.128911 31.484457 6.466272
2003-03-18 08:44:18 51°21.945 2°50.027 7.311698 3.1247 31.441584 6.129178
2003-03-18 08:44:24 51°21.965 2°50.016 7.311698 3.1247 31.441584 6.129178
2003-03-18 08:44:29 51°21.983 2°50.008 7.315903 3.13049 31.501237 6.264016
2003-03-18 08:44:34 51°22 2°49.999 6.784782 3.130701 31.505188 6.02805
2003-03-18 08:44:38 51°22.014 2°49.992 7.227004 3.130174 31.496917 6.264016
2003-03-18 08:44:44 51°22.035 2°49.981 6.983107 3.128385 31.477793 6.230306
2003-03-18 08:44:48 51°22.049 2°49.974 7.376208 3.130596 31.504015 6.196597
2003-03-18 08:44:54 51°22.07 2°49.963 7.376208 3.130596 31.504015 6.196597
2003-03-18 08:44:58 51°22.083 2°49.955 6.894481 3.131122 31.511484 6.02805
2003-03-18 08:45:02 51°22.097 2°49.948 7.530913 3.131333 31.515436 5.994341
2003-03-18 08:45:08 51°22.118 2°49.937 7.051239 3.131543 31.520193 5.960631
2003-03-18 08:45:14 51°22.139 2°49.925 7.172635 3.131964 31.526491 5.825794
2003-03-18 08:45:18 51°22.153 2°49.917 7.536175 3.132175 31.533662 6.095469
2003-03-18 08:45:23 51°22.17 2°49.907 7.536175 3.132175 31.533662 6.095469
2003-03-18 08:45:28 51°22.187 2°49.898 7.056001 3.132807 31.544723 5.893212
2003-03-18 08:45:34 51°22.208 2°49.886 7.020645 3.129648 31.511947 6.095469
2003-03-18 08:45:38 51°22.222 2°49.879 7.69866 3.133438 31.555787 6.162888
2003-03-18 08:45:43 51°22.239 2°49.87 7.178907 3.131333 31.534738 6.162888
2003-03-18 08:45:48 51°22.257 2°49.861 7.143668 3.129017 31.509734 6.297725
2003-03-18 08:45:53 51°22.274 2°49.853 7.143668 3.129017 31.509734 6.297725
2003-03-18 08:45:59 51°22.295 2°49.843 7.382167 3.134386 31.566346 6.095469
2003-03-18 08:46:04 51°22.313 2°49.835 7.10684 3.130069 31.516639 6.162888
2003-03-18 08:46:09 51°22.331 2°49.827 7.388565 3.136176 31.583875 6.061759
2003-03-18 08:46:14 51°22.348 2°49.818 7.191743 3.137018 31.593261 5.994341
2003-03-18 08:46:18 51°22.362 2°49.811 7.474119 3.138071 31.601769 6.02805
2003-03-18 08:46:24 51°22.383 2°49.801 7.474119 3.138071 31.601769 6.02805
2003-03-18 08:46:29 51°22.401 2°49.792 7.31341 3.139861 31.620909 6.365144
2003-03-18 08:46:33 51°22.415 2°49.786 7.278 3.13965 31.615336 6.432563
2003-03-18 08:46:38 51°22.433 2°49.778 6.957791 3.142703 31.650169 6.5674
2003-03-18 08:46:44 51°22.454 2°49.768 7.079757 3.141229 31.632128 6.60111
2003-03-18 08:46:49 51°22.472 2°49.759 7.201441 3.146494 31.687565 6.702238
2003-03-18 08:46:53 51°22.486 2°49.752 7.201441 3.146494 31.687565 6.702238
2003-03-18 08:46:58 51°22.503 2°49.744 6.797648 3.149021 31.71573 6.769657
2003-03-18 08:47:03 51°22.521 2°49.735 7.003009 3.150811 31.733254 6.803366
2003-03-18 08:47:09 51°22.542 2°49.726 7.484555 3.147125 31.689756 6.735947
2003-03-18 08:47:14 51°22.559 2°49.718 7.726794 3.15418 31.765951 6.837076
2003-03-18 08:47:18 51°22.573 2°49.711 7.405265 3.151653 31.736977 7.14046
2003-03-18 08:47:24 51°22.595 2°49.701 7.405265 3.151653 31.736977 7.14046
2003-03-18 08:47:28 51°22.608 2°49.695 7.684904 3.154285 31.764695 6.971913
2003-03-18 08:47:34 51°22.629 2°49.685 6.965067 3.156601 31.788893 6.938204
2003-03-18 08:47:38 51°22.643 2°49.679 7.045249 3.156075 31.782215 6.938204
2003-03-18 08:47:44 51°22.664 2°49.669 7.007332 3.159339 31.816164 7.039332
2003-03-18 08:47:48 51°22.678 2°49.662 7.290327 3.159971 31.823206 7.17417
2003-03-18 08:47:54 51°22.699 2°49.652 7.290327 3.159971 31.823206 7.17417
2003-03-18 08:47:59 51°22.716 2°49.644 7.291746 3.160181 31.825554 7.241589
2003-03-18 08:48:04 51°22.733 2°49.636 7.49265 3.161129 31.834494 7.14046
2003-03-18 08:48:08 51°22.747 2°49.63 7.252899 3.161234 31.834856 7.106751
2003-03-18 08:48:14 51°22.768 2°49.62 7.409513 3.162497 31.844881 6.971913
2003-03-18 08:48:18 51°22.781 2°49.613 7.331058 3.163129 31.850299 7.005623
2003-03-18 08:48:24 51°22.802 2°49.602 7.331058 3.163129 31.850299 7.005623
2003-03-18 08:48:29 51°22.819 2°49.594 7.650235 3.159865 31.813111 6.904494
2003-03-18 08:48:34 51°22.836 2°49.586 7.613649 3.162392 31.841273 6.938204
2003-03-18 08:48:38 51°22.85 2°49.58 7.055805 3.163129 31.847864 7.005623
2003-03-18 08:48:44 51°22.87 2°49.571 7.136706 3.164393 31.861946 7.241589
2003-03-18 08:48:49 51°22.887 2°49.563 7.221373 3.164603 31.86673 7.410136
2003-03-18 08:48:54 51°22.904 2°49.555 7.221373 3.164603 31.86673 7.410136
2003-03-18 08:48:58 51°22.918 2°49.548 7.064788 3.164919 31.869439 7.17417
2003-03-18 08:49:04 51°22.938 2°49.538 7.66745 3.164919 31.868626 7.106751
2003-03-18 08:49:08 51°22.952 2°49.531 7.38793 3.159865 31.813111 7.511264
2003-03-18 08:49:14 51°22.972 2°49.521 8.024963 3.166498 31.884606 7.477554
2003-03-18 08:49:18 51°22.986 2°49.515 7.390079 3.167657 31.894265 7.511264
2003-03-18 08:49:24 51°23.006 2°49.505 7.390079 3.167657 31.894265 7.511264
2003-03-18 08:49:28 51°23.02 2°49.498 7.312725 3.168604 31.903202 7.275298
2003-03-18 08:49:34 51°23.04 2°49.488 7.390812 3.169341 31.909791 7.646101
2003-03-18 08:49:38 51°23.054 2°49.481 7.314094 3.169657 31.912498 7.544973
2003-03-18 08:49:44 51°23.074 2°49.47 7.472997 3.170815 31.923781 7.612392
2003-03-18 08:49:49 51°23.091 2°49.462 7.393986 3.172816 31.946079 7.646101
2003-03-18 08:49:54 51°23.108 2°49.453 7.393986 3.172816 31.946079 7.646101
2003-03-18 08:49:58 51°23.121 2°49.446 7.313116 3.173448 31.950679 7.71352
2003-03-18 08:50:04 51°23.142 2°49.435 7.594228 3.174501 31.964045 7.882067
2003-03-18 08:50:09 51°23.159 2°49.427 7.59379 3.175238 31.969817 7.848358
2003-03-18 08:50:14 51°23.176 2°49.417 7.471778 3.171973 31.934249 7.814648
2003-03-18 08:50:18 51°23.19 2°49.41 7.272081 3.175343 31.970991 7.578683
2003-03-18 08:50:24 51°23.21 2°49.4 7.272081 3.175343 31.970991 7.578683
2003-03-18 08:50:28 51°23.224 2°49.393 7.749039 3.176817 31.985794 7.612392
2003-03-18 08:50:34 51°23.244 2°49.382 7.510785 3.176922 31.985338 7.679811
2003-03-18 08:50:38 51°23.258 2°49.375 7.028749 3.175343 31.968548 7.17417
2003-03-18 08:50:44 51°23.278 2°49.364 7.064984 3.176606 31.982632 7.443845
2003-03-18 08:50:49 51°23.295 2°49.355 7.021578 3.173869 31.952118 7.106751
2003-03-18 08:50:54 51°23.313 2°49.347 7.021578 3.173869 31.952118 7.106751
2003-03-18 08:50:58 51°23.326 2°49.339 7.338634 3.177765 31.995542 7.073042
2003-03-18 08:51:04 51°23.347 2°49.329 7.012982 3.176606 31.985076 7.207879
2003-03-18 08:51:08 51°23.361 2°49.322 7.33448 3.17808 32.002325 7.477554
2003-03-18 08:51:14 51°23.381 2°49.311 7.451582 3.177554 31.998086 7.376426
2003-03-18 08:51:18 51°23.394 2°49.304 7.408829 3.177343 31.996553 7.477554
2003-03-18 08:51:24 51°23.415 2°49.292 7.408829 3.177343 31.996553 7.477554
2003-03-18 08:51:28 51°23.429 2°49.284 7.446801 3.176922 31.995118 7.376426
2003-03-18 08:51:34 51°23.449 2°49.273 6.883455 3.173342 31.956833 7.578683
2003-03-18 08:51:38 51°23.463 2°49.266 7.387588 3.176817 31.999652 7.17417
2003-03-18 08:51:44 51°23.484 2°49.256 7.557367 3.176185 31.993422 7.241589
2003-03-18 08:51:48 51°23.498 2°49.248 7.559948 3.175343 31.988105 7.309007
2003-03-18 08:51:54 51°23.518 2°49.237 7.559948 3.175343 31.988105 7.309007
2003-03-18 08:51:58 51°23.531 2°49.231 7.796565 3.17587 31.997239 6.904494
2003-03-18 08:52:04 51°23.552 2°49.221 7.516634 3.175343 31.992998 6.769657
2003-03-18 08:52:09 51°23.569 2°49.214 7.551668 3.170605 31.942594 6.769657
2003-03-18 08:52:14 51°23.586 2°49.206 7.231165 3.174501 31.986864 6.803366
2003-03-18 08:52:18 51°23.601 2°49.2 7.512588 3.173132 31.97241 6.60111
2003-03-18 08:52:24 51°23.621 2°49.191 7.512588 3.173132 31.97241 6.60111
2003-03-18 08:52:28 51°23.635 2°49.186 7.109832 3.17229 31.963829 6.533691
2003-03-18 08:52:34 51°23.656 2°49.176 7.227983 3.173027 31.974497 6.365144
2003-03-18 08:52:38 51°23.67 2°49.17 7.508884 3.171974 31.965196 6.129178
2003-03-18 08:52:44 51°23.69 2°49.162 7.349141 3.169552 31.93818 5.859503
2003-03-18 08:52:49 51°23.708 2°49.156 7.186893 3.17071 31.955175 6.02805
2003-03-18 08:52:54 51°23.725 2°49.149 7.186893 3.17071 31.955175 6.02805
2003-03-18 08:52:58 51°23.739 2°49.144 7.531254 3.171026 31.9587 6.02805
2003-03-18 08:53:04 51°23.76 2°49.136 7.505325 3.17071 31.95599 5.758375
2003-03-18 08:53:08 51°23.773 2°49.132 7.023936 3.170605 31.954001 5.859503
2003-03-18 08:53:14 51°23.794 2°49.125 7.707602 3.170289 31.952921 5.657247
2003-03-18 08:53:18 51°23.808 2°49.12 7.101297 3.166815 31.914155 5.690956
2003-03-18 08:53:24 51°23.829 2°49.112 7.101297 3.166815 31.914155 5.690956
2003-03-18 08:53:28 51°23.843 2°49.108 7.939657 3.169447 31.945153 5.690956
2003-03-18 08:53:34 51°23.864 2°49.1 7.303239 3.16692 31.917773 5.522409
2003-03-18 08:53:38 51°23.878 2°49.096 7.257842 3.167973 31.92952 5.45499
2003-03-18 08:53:44 51°23.899 2°49.088 7.301576 3.161445 31.85832 5.421281
2003-03-18 08:53:48 51°23.913 2°49.083 7.457144 3.164393 31.892835 5.45499
2003-03-18 08:53:54 51°23.934 2°49.075 7.457144 3.164393 31.892835 5.45499
2003-03-18 08:53:58 51°23.948 2°49.07 7.417568 3.167762 31.930429 5.320153
2003-03-18 08:54:04 51°23.969 2°49.064 7.259995 3.16155 31.863559 5.117896
2003-03-18 08:54:09 51°23.986 2°49.058 7.136216 3.167131 31.925823 5.151606
2003-03-18 08:54:14 51°24.004 2°49.053 7.457974 3.165446 31.907839 5.016768
2003-03-18 08:54:18 51°24.018 2°49.048 7.092466 3.167131 31.928267 5.016768
2003-03-18 08:54:24 51°24.039 2°49.042 7.092466 3.167131 31.928267 5.016768
2003-03-18 08:54:29 51°24.056 2°49.036 6.973228 3.168605 31.944718 4.88193
2003-03-18 08:54:34 51°24.073 2°49.032 7.574997 3.16692 31.926732 4.713383
2003-03-18 08:54:38 51°24.087 2°49.028 7.291893 3.169552 31.956926 4.679674
2003-03-18 08:54:44 51°24.108 2°49.023 7.371421 3.16871 31.945893 4.713383
2003-03-18 08:54:49 51°24.126 2°49.018 7.171361 3.168394 31.943183 4.645965
2003-03-18 08:54:54 51°24.144 2°49.014 7.171361 3.168394 31.943183 4.645965
2003-03-18 08:54:58 51°24.158 2°49.011 7.131165 3.166815 31.926371 4.645965
2003-03-18 08:55:04 51°24.179 2°49.007 7.409366 3.168394 31.945629 4.780802
2003-03-18 08:55:09 51°24.196 2°49.002 7.28842 3.1705 31.969135 4.713383
2003-03-18 08:55:14 51°24.214 2°48.998 7.086627 3.17229 31.991566 4.848221
2003-03-18 08:55:18 51°24.228 2°48.995 7.325534 3.173659 32.006032 4.713383
2003-03-18 08:55:24 51°24.249 2°48.99 7.325534 3.173659 32.006032 4.713383
2003-03-18 08:55:28 51°24.263 2°48.987 6.961724 3.175028 32.02295 4.747093
2003-03-18 08:55:34 51°24.284 2°48.982 7.521118 3.175238 32.027754 4.645965
2003-03-18 08:55:38 51°24.298 2°48.978 6.919724 3.173448 32.007765 4.713383
2003-03-18 08:55:44 51°24.319 2°48.973 7.196739 3.178502 32.064208 4.679674
2003-03-18 08:55:48 51°24.333 2°48.969 6.995049 3.176291 32.039512 4.747093
2003-03-18 08:55:54 51°24.354 2°48.964 6.995049 3.176291 32.039512 4.747093
2003-03-18 08:55:58 51°24.369 2°48.961 7.115178 3.180713 32.087268 4.679674
2003-03-18 08:56:04 51°24.39 2°48.957 6.896499 3.178292 32.061037 4.578546
2003-03-18 08:56:09 51°24.407 2°48.954 7.314925 3.182082 32.105836 4.544836
2003-03-18 08:56:14 51°24.425 2°48.95 7.111941 3.182819 32.11571 4.612255
2003-03-18 08:56:18 51°24.439 2°48.947 7.112775 3.18303 32.120522 4.511127
2003-03-18 08:56:22 51°24.453 2°48.944 7.112775 3.18303 32.120522 4.511127
2003-03-18 08:56:28 51°24.474 2°48.938 7.312187 3.183346 32.127333 4.443708
2003-03-18 08:56:34 51°24.495 2°48.934 6.827364 3.183451 32.12933 4.477418
2003-03-18 08:56:38 51°24.51 2°48.931 7.667645 3.183872 32.134858 4.578546
2003-03-18 08:56:44 51°24.531 2°48.926 6.66304 3.183872 32.135678 4.477418
2003-03-18 08:56:49 51°24.548 2°48.921 7.467534 3.182398 32.121665 4.544836
2003-03-18 08:56:53 51°24.562 2°48.918 7.467534 3.182398 32.121665 4.544836
2003-03-18 08:56:58 51°24.58 2°48.914 7.424548 3.184083 32.141315 4.612255
2003-03-18 08:57:02 51°24.594 2°48.912 7.823977 3.17766 32.071993 4.511127
2003-03-18 08:57:08 51°24.615 2°48.907 6.900091 3.180503 32.106224 4.612255
2003-03-18 08:57:14 51°24.636 2°48.902 7.260239 3.17766 32.07527 4.612255
2003-03-18 08:57:18 51°24.651 2°48.898 7.13852 3.184083 32.146241 4.679674
2003-03-18 08:57:24 51°24.672 2°48.894 7.13852 3.184083 32.146241 4.679674
2003-03-18 08:57:28 51°24.686 2°48.891 7.416396 3.178924 32.09103 4.511127
2003-03-18 08:57:34 51°24.707 2°48.887 7.013178 3.183241 32.140108 4.578546
2003-03-18 08:57:38 51°24.721 2°48.883 7.132195 3.183767 32.146816 4.612255
2003-03-18 08:57:44 51°24.743 2°48.879 7.249522 3.185136 32.161298 4.409999
2003-03-18 08:57:49 51°24.761 2°48.875 7.330129 3.185241 32.165762 4.477418
2003-03-18 08:57:54 51°24.778 2°48.871 7.330129 3.185241 32.165762 4.477418
2003-03-18 08:57:58 51°24.793 2°48.868 6.769003 3.182925 32.141504 4.376289
2003-03-18 08:58:04 51°24.814 2°48.865 6.967919 3.182609 32.140435 4.376289
2003-03-18 08:58:08 51°24.828 2°48.862 7.047606 3.18661 32.186826 4.34258
2003-03-18 08:58:14 51°24.85 2°48.858 6.805337 3.180819 32.122883 4.477418
2003-03-18 08:58:18 51°24.864 2°48.855 7.286121 3.188084 32.208253 4.308871
2003-03-18 08:58:24 51°24.886 2°48.851 7.286121 3.188084 32.208253 4.308871
2003-03-18 08:58:28 51°24.9 2°48.848 7.088246 3.188295 32.209785 4.34258
2003-03-18 08:58:34 51°24.921 2°48.844 6.84756 3.185768 32.182339 4.409999
2003-03-18 08:58:38 51°24.936 2°48.841 7.16989 3.18819 32.211077 4.477418
2003-03-18 08:58:42 51°24.95 2°48.838 7.00974 3.189453 32.225214 4.511127
2003-03-18 08:58:48 51°24.972 2°48.834 7.293947 3.191454 32.250072 4.645965
2003-03-18 08:58:54 51°24.993 2°48.83 7.293947 3.191454 32.250072 4.645965
2003-03-18 08:58:58 51°25.007 2°48.828 7.574851 3.1864 32.194343 4.747093
2003-03-18 08:59:04 51°25.029 2°48.823 6.991069 3.193244 32.270104 4.679674
2003-03-18 08:59:08 51°25.043 2°48.821 7.296783 3.193876 32.275524 4.780802
2003-03-18 08:59:14 51°25.065 2°48.817 7.49928 3.195771 32.296736 4.780802
2003-03-18 08:59:18 51°25.079 2°48.814 6.904471 3.195245 32.287542 4.88193
2003-03-18 08:59:24 51°25.1 2°48.809 6.904471 3.195245 32.287542 4.88193
2003-03-18 08:59:28 51°25.115 2°48.806 7.225045 3.197561 32.310164 4.780802
2003-03-18 08:59:34 51°25.136 2°48.802 6.98871 3.192823 32.257144 4.780802
2003-03-18 08:59:38 51°25.15 2°48.799 7.672653 3.198088 32.314404 4.713383
2003-03-18 08:59:44 51°25.172 2°48.795 6.714291 3.198825 32.320174 4.780802
2003-03-18 08:59:49 51°25.19 2°48.792 7.000896 3.19556 32.283651 4.88193
2003-03-18 08:59:54 51°25.207 2°48.788 7.000896 3.19556 32.283651 4.88193
2003-03-18 08:59:59 51°25.225 2°48.784 6.885228 3.194929 32.274108 4.983059
2003-03-18 09:00:04 51°25.243 2°48.777 7.090062 3.198403 32.310508 5.016768
2003-03-18 09:00:08 51°25.257 2°48.773 7.011361 3.201036 32.337483 5.219024
2003-03-18 09:00:14 51°25.278 2°48.765 7.215791 3.199562 32.317687 5.4887
2003-03-18 09:00:18 51°25.292 2°48.759 6.898615 3.203668 32.357844 5.387571
2003-03-18 09:00:24 51°25.313 2°48.749 6.898615 3.203668 32.357844 5.387571
2003-03-18 09:00:29 51°25.33 2°48.74 7.060272 3.20451 32.365615 5.556118
2003-03-18 09:00:34 51°25.347 2°48.731 7.081671 3.200825 32.319439 5.623537
2003-03-18 09:00:38 51°25.361 2°48.723 6.987186 3.206511 32.378901 5.657247
2003-03-18 09:00:44 51°25.381 2°48.711 7.630923 3.20788 32.392558 5.690956
2003-03-18 09:00:48 51°25.395 2°48.701 7.314485 3.206195 32.370409 5.724665
2003-03-18 09:00:54 51°25.415 2°48.689 7.314485 3.206195 32.370409 5.724665
2003-03-18 09:00:58 51°25.428 2°48.678 7.599729 3.205353 32.357686 5.724665
2003-03-18 09:01:03 51°25.445 2°48.667 7.119102 3.203036 32.330135 5.623537
2003-03-18 09:01:08 51°25.461 2°48.654 7.801175 3.211776 32.425377 5.45499
2003-03-18 09:01:14 51°25.481 2°48.639 7.00635 3.212513 32.428654 5.320153
2003-03-18 09:01:19 51°25.498 2°48.626 7.249473 3.208196 32.377907 5.219024
2003-03-18 09:01:24 51°25.514 2°48.612 7.249473 3.208196 32.377907 5.219024
2003-03-18 09:01:29 51°25.531 2°48.599 7.015193 3.21146 32.411918 5.421281
2003-03-18 09:01:34 51°25.548 2°48.586 7.255982 3.208511 32.37483 5.084187
2003-03-18 09:01:38 51°25.561 2°48.576 7.21775 3.212618 32.417424 5.286443
2003-03-18 09:01:44 51°25.581 2°48.561 7.146462 3.214829 32.438833 5.185315
2003-03-18 09:01:48 51°25.594 2°48.55 6.985712 3.210512 32.387278 5.084187
2003-03-18 09:01:53 51°25.611 2°48.538 6.985712 3.210512 32.387278 5.084187
2003-03-18 09:01:58 51°25.628 2°48.525 6.826723 3.218094 32.468698 5.252734
2003-03-18 09:02:04 51°25.648 2°48.51 7.510736 3.218199 32.465736 5.050477
2003-03-18 09:02:08 51°25.661 2°48.5 7.317663 3.218304 32.464429 5.252734
2003-03-18 09:02:12 51°25.675 2°48.49 7.158716 3.218304 32.461119 5.353862
2003-03-18 09:02:18 51°25.695 2°48.475 7.643133 3.221779 32.496636 5.522409
2003-03-18 09:02:23 51°25.71 2°48.464 7.643133 3.221779 32.496636 5.522409
2003-03-18 09:02:28 51°25.725 2°48.454 7.247123 3.220621 32.482038 5.690956
2003-03-18 09:02:34 51°25.742 2°48.443 6.968558 3.217988 32.450973 5.623537
2003-03-18 09:02:38 51°25.753 2°48.436 7.373228 3.219568 32.465309 5.724665
2003-03-18 09:02:44 51°25.769 2°48.425 7.373717 3.22557 32.529051 6.129178
2003-03-18 09:02:49 51°25.782 2°48.416 7.294583 3.227044 32.542206 6.398853
2003-03-18 09:02:54 51°25.794 2°48.406 7.294583 3.227044 32.542206 6.398853
2003-03-18 09:02:58 51°25.805 2°48.399 7.05713 3.225886 32.524294 6.432563
2003-03-18 09:03:04 51°25.82 2°48.388 7.180768 3.226728 32.53039 6.466272
2003-03-18 09:03:08 51°25.83 2°48.382 6.979617 3.228202 32.542712 6.162888
2003-03-18 09:03:14 51°25.844 2°48.373 7.180278 3.226412 32.521892 6.331435
2003-03-18 09:03:18 51°25.853 2°48.368 7.023347 3.229571 32.555515 6.331435
2003-03-18 09:03:23 51°25.864 2°48.364 7.023347 3.229571 32.555515 6.331435
2003-03-18 09:03:29 51°25.877 2°48.361 7.184982 3.229045 32.548806 6.499982
2003-03-18 09:03:34 51°25.886 2°48.36 6.741431 3.228834 32.543139 6.196597
2003-03-18 09:03:38 51°25.893 2°48.36 6.700421 3.231256 32.566869 6.499982
2003-03-18 09:03:44 51°25.904 2°48.361 6.861547 3.232414 32.578975 6.196597
2003-03-18 09:03:49 51°25.912 2°48.363 7.38583 3.228939 32.541001 6.297725
2003-03-18 09:03:54 51°25.92 2°48.365 7.38583 3.228939 32.541001 6.297725
2003-03-18 09:03:58 51°25.925 2°48.367 7.583226 3.22736 32.520054 6.162888
2003-03-18 09:04:02 51°25.93 2°48.371 7.103651 3.226622 32.507688 6.297725
2003-03-18 09:04:08 51°25.936 2°48.377 7.225731 3.233573 32.583616 5.792084
2003-03-18 09:04:14 51°25.942 2°48.384 6.985712 3.233994 32.589149 5.758375
2003-03-18 09:04:19 51°25.946 2°48.391 6.864353 3.234942 32.60222 5.758375
2003-03-18 09:04:23 51°25.95 2°48.396 6.864353 3.234942 32.60222 5.758375
2003-03-18 09:04:28 51°25.954 2°48.403 7.023445 3.228413 32.530154 5.792084
2003-03-18 09:04:34 51°25.959 2°48.41 7.465486 3.230835 32.557193 5.724665
2003-03-18 09:04:38 51°25.962 2°48.415 6.699582 3.232309 32.571995 5.758375
2003-03-18 09:04:44 51°25.966 2°48.423 7.264007 3.234415 32.595511 5.522409
2003-03-18 09:04:49 51°25.97 2°48.429 7.344206 3.234415 32.59634 5.522409
2003-03-18 09:04:54 51°25.973 2°48.435 7.344206 3.234415 32.59634 5.522409
2003-03-18 09:04:58 51°25.976 2°48.44 6.862236 3.235468 32.60644 5.353862
2003-03-18 09:05:03 51°25.98 2°48.445 7.503083 3.231572 32.562108 5.320153
2003-03-18 09:05:09 51°25.984 2°48.45 6.782958 3.233046 32.581055 5.353862
2003-03-18 09:05:13 51°25.987 2°48.452 6.782415 3.235679 32.612111 5.421281
2003-03-18 09:05:18 51°25.989 2°48.454 7.223821 3.227676 32.521925 5.320153
2003-03-18 09:05:23 51°25.991 2°48.456 7.223821 3.227676 32.521925 5.320153
2003-03-18 09:05:28 51°25.992 2°48.458 6.943482 3.234415 32.599659 5.219024
2003-03-18 09:05:34 51°25.993 2°48.46 7.062726 3.235363 32.609413 5.387571
2003-03-18 09:05:39 51°25.993 2°48.461 7.307444 3.235047 32.605885 5.4887
2003-03-18 09:05:44 51°25.992 2°48.462 6.904422 3.231888 32.572267 5.151606
2003-03-18 09:05:49 51°25.992 2°48.464 7.027767 3.226728 32.512173 5.353862
2003-03-18 09:05:54 51°25.993 2°48.465 7.027767 3.226728 32.512173 5.353862
2003-03-18 09:05:58 51°25.993 2°48.466 6.741135 3.232309 32.57697 5.286443
2003-03-18 09:06:04 51°25.992 2°48.467 7.145825 3.235468 32.610589 5.117896
2003-03-18 09:06:09 51°25.992 2°48.468 6.904225 3.233046 32.579396 5.151606
2003-03-18 09:06:14 51°25.992 2°48.469 7.184737 3.233888 32.586314 5.286443
2003-03-18 09:06:18 51°25.991 2°48.47 7.066506 3.231572 32.561279 5.050477
2003-03-18 09:06:24 51°25.991 2°48.471 7.066506 3.231572 32.561279 5.050477
2003-03-18 09:06:29 51°25.991 2°48.472 6.942941 3.227676 32.519442 5.252734
2003-03-18 09:06:34 51°25.99 2°48.473 7.142834 3.231782 32.567775 4.983059
2003-03-18 09:06:38 51°25.99 2°48.473 7.104878 3.229676 32.543433 5.185315
2003-03-18 09:06:43 51°25.99 2°48.474 7.184639 3.234836 32.601874 5.387571
2003-03-18 09:06:48 51°25.989 2°48.474 7.023445 3.233783 32.590944 5.219024
2003-03-18 09:06:54 51°25.989 2°48.474 7.023445 3.233783 32.590944 5.219024
2003-03-18 09:06:58 51°25.989 2°48.475 6.944613 3.232414 32.574 4.983059
2003-03-18 09:07:04 51°25.989 2°48.475 6.743898 3.23252 32.576834 5.387571
2003-03-18 09:07:09 51°25.989 2°48.475 7.065524 3.231361 32.564729 5.387571
2003-03-18 09:07:14 51°25.989 2°48.475 7.544507 3.234836 32.603533 5.286443
2003-03-18 09:07:19 51°25.989 2°48.475 7.423767 3.235679 32.612111 5.117896
2003-03-18 09:07:24 51°25.988 2°48.476 7.423767 3.235679 32.612111 5.117896
2003-03-18 09:07:28 51°25.988 2°48.475 7.024771 3.232625 32.577181 5.320153
2003-03-18 09:07:33 51°25.988 2°48.474 6.783944 3.227254 32.515568 5.4887
2003-03-18 09:07:39 51°25.988 2°48.473 7.266894 3.227044 32.514045 5.286443
2003-03-18 09:07:44 51°25.987 2°48.472 7.512442 3.233783 32.589285 5.252734
2003-03-18 09:07:49 51°25.987 2°48.473 6.908358 3.235047 32.603396 5.252734
2003-03-18 09:07:52 51°25.987 2°48.473 6.908358 3.235047 32.603396 5.252734
2003-03-18 09:07:58 51°25.987 2°48.473 7.509907 3.235257 32.606578 5.151606
2003-03-18 09:08:04 51°25.987 2°48.472 7.238949 3.234099 32.591154 5.45499
2003-03-18 09:08:09 51°25.987 2°48.472 6.870508 3.230519 32.552838 5.421281
2003-03-18 09:08:14 51°25.987 2°48.471 7.114737 3.234836 32.599385 5.286443
2003-03-18 09:08:18 51°25.986 2°48.471 7.192673 3.233046 32.578567 4.91564
2003-03-18 09:08:24 51°25.986 2°48.47 7.192673 3.233046 32.578567 4.91564
2003-03-18 09:08:28 51°25.985 2°48.47 7.431527 3.232941 32.576562 5.117896
2003-03-18 09:08:33 51°25.985 2°48.469 7.593255 3.235257 32.601599 5.421281
2003-03-18 09:08:39 51°25.985 2°48.468 7.550986 3.227149 32.509428 5.353862
2003-03-18 09:08:44 51°25.985 2°48.468 7.1089 3.230835 32.550565 5.219024
2003-03-18 09:08:48 51°25.985 2°48.467 7.500548 3.234836 32.594407 5.353862
2003-03-18 09:08:54 51°25.984 2°48.465 7.500548 3.234836 32.594407 5.353862
2003-03-18 09:08:58 51°25.984 2°48.465 7.791566 3.22757 32.514957 5.45499
2003-03-18 09:09:04 51°25.984 2°48.464 7.551083 3.233046 32.577738 5.286443
2003-03-18 09:09:09 51°25.983 2°48.463 7.390177 3.232941 32.575733 5.589828
2003-03-18 09:09:14 51°25.983 2°48.462 7.474899 3.232098 32.566328 5.421281
2003-03-18 09:09:18 51°25.983 2°48.461 7.631847 3.235047 32.599247 5.219024
2003-03-18 09:09:24 51°25.982 2°48.46 7.631847 3.235047 32.599247 5.219024
2003-03-18 09:09:28 51°25.982 2°48.46 7.029584 3.232098 32.567157 5.387571
2003-03-18 09:09:34 51°25.982 2°48.459 7.313312 3.230519 32.549524 5.45499
2003-03-18 09:09:38 51°25.981 2°48.458 7.668812 3.234415 32.593852 5.387571
2003-03-18 09:09:44 51°25.981 2°48.457 7.232732 3.227044 32.509907 5.589828
2003-03-18 09:09:48 51°25.981 2°48.457 7.630339 3.227254 32.513085 5.724665
2003-03-18 09:09:54 51°25.98 2°48.456 7.630339 3.227254 32.513085 5.724665
2003-03-18 09:09:58 51°25.981 2°48.454 6.827117 3.234415 32.592193 5.353862
2003-03-18 09:10:04 51°25.98 2°48.453 7.434016 3.232941 32.574904 5.556118
2003-03-18 09:10:08 51°25.98 2°48.453 7.028995 3.22736 32.512606 5.657247
2003-03-18 09:10:14 51°25.98 2°48.452 7.470851 3.230835 32.551394 5.724665
2003-03-18 09:10:19 51°25.979 2°48.451 7.18993 3.232414 32.569026 5.589828
2003-03-18 09:10:24 51°25.979 2°48.45 7.18993 3.232414 32.569026 5.589828
2003-03-18 09:10:29 51°25.979 2°48.449 7.631263 3.233573 32.583616 5.45499
2003-03-18 09:10:34 51°25.978 2°48.448 7.470022 3.231256 32.556095 5.724665
2003-03-18 09:10:38 51°25.978 2°48.448 7.149992 3.234731 32.59489 5.758375
2003-03-18 09:10:44 51°25.978 2°48.447 7.707067 3.22936 32.535765 5.825794
2003-03-18 09:10:48 51°25.977 2°48.447 7.706824 3.230519 32.549524 5.623537
2003-03-18 09:10:53 51°25.977 2°48.446 7.706824 3.230519 32.549524 5.623537
2003-03-18 09:10:59 51°25.977 2°48.445 6.744342 3.233362 32.581265 5.556118
2003-03-18 09:11:04 51°25.976 2°48.444 7.188754 3.226833 32.507557 5.589828
2003-03-18 09:11:08 51°25.976 2°48.443 7.308373 3.230097 32.543165 5.623537
2003-03-18 09:11:12 51°25.976 2°48.442 6.744391 3.235047 32.600906 5.4887
2003-03-18 09:11:18 51°25.975 2°48.441 6.90949 3.235257 32.601599 5.556118
2003-03-18 09:11:23 51°25.975 2°48.44 6.90949 3.235257 32.601599 5.556118
2003-03-18 09:11:29 51°25.975 2°48.438 6.909146 3.233467 32.58327 5.45499
2003-03-18 09:11:34 51°25.975 2°48.438 7.271738 3.23094 32.553397 5.421281
2003-03-18 09:11:38 51°25.975 2°48.437 7.02757 3.23094 32.554226 5.724665
2003-03-18 09:11:44 51°25.975 2°48.436 7.069598 3.227465 32.517091 5.825794
2003-03-18 09:11:49 51°25.975 2°48.434 7.431088 3.229255 32.536246 5.623537
2003-03-18 09:11:54 51°25.975 2°48.434 7.431088 3.229255 32.536246 5.623537
2003-03-18 09:11:58 51°25.976 2°48.433 7.31297 3.235047 32.601736 5.387571
2003-03-18 09:12:02 51°25.976 2°48.432 7.06788 3.228097 32.522488 5.657247
2003-03-18 09:12:08 51°25.977 2°48.431 7.114148 3.23273 32.574211 5.690956
2003-03-18 09:12:14 51°25.978 2°48.43 6.789909 3.233151 32.578085 5.623537
2003-03-18 09:12:18 51°25.978 2°48.43 7.390909 3.226728 32.506382 5.657247
2003-03-18 09:12:24 51°25.979 2°48.43 7.390909 3.226728 32.506382 5.657247
2003-03-18 09:12:29 51°25.98 2°48.429 7.34836 3.226622 32.504379 5.556118
2003-03-18 09:12:34 51°25.981 2°48.429 7.148178 3.228623 32.527538 5.724665
2003-03-18 09:12:38 51°25.982 2°48.429 7.431478 3.230729 32.550218 5.926922
2003-03-18 09:12:44 51°25.982 2°48.429 7.027374 3.226833 32.50673 5.893212
2003-03-18 09:12:48 51°25.983 2°48.428 7.388419 3.234204 32.589841 5.792084
2003-03-18 09:12:54 51°25.984 2°48.427 7.388419 3.234204 32.589841 5.792084
2003-03-18 09:12:59 51°25.985 2°48.426 7.271347 3.226728 32.506382 5.724665
2003-03-18 09:13:03 51°25.985 2°48.426 7.468461 3.227149 32.511083 5.758375
2003-03-18 09:13:09 51°25.986 2°48.425 7.271836 3.233573 32.583616 5.657247
2003-03-18 09:13:14 51°25.986 2°48.424 7.349777 3.230308 32.548001 5.724665
2003-03-18 09:13:18 51°25.986 2°48.423 7.670562 3.230308 32.547173 6.196597
2003-03-18 09:13:24 51°25.987 2°48.422 7.670562 3.230308 32.547173 6.196597
2003-03-18 09:13:29 51°25.988 2°48.421 7.267237 3.228939 32.531892 5.690956
2003-03-18 09:13:34 51°25.988 2°48.42 7.432845 3.233467 32.58327 5.690956
2003-03-18 09:13:38 51°25.988 2°48.419 7.065033 3.231677 32.561626 5.690956
2003-03-18 09:13:42 51°25.988 2°48.418 7.231851 3.227465 32.514609 5.690956
2003-03-18 09:13:48 51°25.988 2°48.417 7.193555 3.229044 32.532239 5.724665
2003-03-18 09:13:54 51°25.989 2°48.416 7.193555 3.229044 32.532239 5.724665
2003-03-18 09:13:58 51°25.989 2°48.415 7.670562 3.231572 32.560451 5.589828
2003-03-18 09:14:04 51°25.989 2°48.413 7.428452 3.230519 32.547867 5.657247
2003-03-18 09:14:08 51°25.989 2°48.412 7.031794 3.233257 32.580089 5.45499
2003-03-18 09:14:13 51°25.989 2°48.411 6.94599 3.226201 32.501332 5.589828
2003-03-18 09:14:19 51°25.989 2°48.41 7.310085 3.230203 32.545997 5.589828
2003-03-18 09:14:24 51°25.989 2°48.409 7.310085 3.230203 32.545997 5.589828
2003-03-18 09:14:28 51°25.989 2°48.408 7.225829 3.234415 32.592193 5.421281
2003-03-18 09:14:32 51°25.988 2°48.407 7.58975 3.233046 32.577738 5.421281
2003-03-18 09:14:38 51°25.988 2°48.406 7.510736 3.234626 32.595374 5.4887
2003-03-18 09:14:44 51°25.987 2°48.405 7.107772 3.231466 32.560104 5.589828
2003-03-18 09:14:49 51°25.987 2°48.404 7.070874 3.228097 32.522488 5.353862
2003-03-18 09:14:54 51°25.986 2°48.403 7.070874 3.228097 32.522488 5.353862
2003-03-18 09:14:58 51°25.986 2°48.402 8.100497 3.23431 32.593505 5.45499
2003-03-18 09:15:04 51°25.985 2°48.401 7.427671 3.235257 32.603258 5.252734
2003-03-18 09:15:08 51°25.985 2°48.399 7.507421 3.234941 32.598071 5.421281
2003-03-18 09:15:13 51°25.985 2°48.398 7.225388 3.234836 32.597725 5.421281
2003-03-18 09:15:18 51°25.984 2°48.396 7.271347 3.235047 32.600077 5.623537
2003-03-18 09:15:24 51°25.984 2°48.395 7.271347 3.235047 32.600077 5.623537
2003-03-18 09:15:28 51°25.983 2°48.395 7.426402 3.234941 32.598071 5.421281
2003-03-18 09:15:34 51°25.983 2°48.394 7.426402 3.235363 32.601945 5.387571
2003-03-18 09:15:38 51°25.982 2°48.394 7.541535 3.234836 32.597725 5.623537
2003-03-18 09:15:44 51°25.981 2°48.394 7.390812 3.234941 32.599731 5.421281
2003-03-18 09:15:49 51°25.98 2°48.394 7.625279 3.234941 32.598901 5.589828
2003-03-18 09:15:54 51°25.979 2°48.395 7.625279 3.234941 32.598901 5.589828
2003-03-18 09:15:58 51°25.979 2°48.395 7.462998 3.234836 32.598555 5.758375
2003-03-18 09:16:04 51°25.977 2°48.395 7.06307 3.234941 32.60139 5.690956
2003-03-18 09:16:08 51°25.977 2°48.395 7.422986 3.234836 32.599385 5.623537
2003-03-18 09:16:14 51°25.976 2°48.395 7.661615 3.234941 32.60056 5.657247
2003-03-18 09:16:18 51°25.975 2°48.395 7.383877 3.234731 32.599038 5.690956
2003-03-18 09:16:24 51°25.975 2°48.396 7.383877 3.234731 32.599038 5.690956
2003-03-18 09:16:28 51°25.974 2°48.396 7.382656 3.23452 32.598346 5.623537
2003-03-18 09:16:34 51°25.973 2°48.397 7.939657 3.234836 32.601874 5.623537
2003-03-18 09:16:38 51°25.973 2°48.397 7.303043 3.234836 32.602704 5.724665
2003-03-18 09:16:44 51°25.972 2°48.397 7.182091 3.23452 32.600006 5.859503
2003-03-18 09:16:49 51°25.971 2°48.398 7.342007 3.234731 32.602358 5.758375
2003-03-18 09:16:54 51°25.971 2°48.398 7.342007 3.234731 32.602358 5.758375
2003-03-18 09:16:58 51°25.971 2°48.398 7.0985 3.234415 32.599659 5.657247
2003-03-18 09:17:04 51°25.97 2°48.398 7.341322 3.23452 32.602495 5.758375
2003-03-18 09:17:08 51°25.97 2°48.398 6.860266 3.234626 32.601182 5.792084
2003-03-18 09:17:14 51°25.97 2°48.398 7.099285 3.23431 32.597654 5.758375
2003-03-18 09:17:19 51°25.97 2°48.398 7.142344 3.234415 32.600489 5.690956
2003-03-18 09:17:24 51°25.969 2°48.398 7.142344 3.234415 32.600489 5.690956
2003-03-18 09:17:29 51°25.969 2°48.399 7.264007 3.234415 32.599659 6.02805
2003-03-18 09:17:34 51°25.969 2°48.399 6.944809 3.234415 32.59883 5.758375
2003-03-18 09:17:38 51°25.969 2°48.399 7.064837 3.23431 32.597654 5.792084
2003-03-18 09:17:44 51°25.969 2°48.399 7.022806 3.233783 32.592604 6.02805
2003-03-18 09:17:48 51°25.969 2°48.399 7.018729 3.23452 32.600835 5.758375
2003-03-18 09:17:53 51°25.97 2°48.398 7.018729 3.23452 32.600835 5.758375
2003-03-18 09:17:58 51°25.97 2°48.398 7.220492 3.234204 32.598137 5.825794
2003-03-18 09:18:04 51°25.97 2°48.398 7.260827 3.233678 32.591428 5.893212
2003-03-18 09:18:09 51°25.97 2°48.397 7.381434 3.234099 32.595302 5.724665
2003-03-18 09:18:12 51°25.97 2°48.398 7.583859 3.233783 32.591774 5.758375
2003-03-18 09:18:18 51°25.97 2°48.399 7.425475 3.234415 32.59883 5.690956
2003-03-18 09:18:23 51°25.97 2°48.399 7.425475 3.234415 32.59883 5.690956
2003-03-18 09:18:29 51°25.97 2°48.399 7.422156 3.233783 32.592604 5.724665
2003-03-18 09:18:34 51°25.97 2°48.399 7.141609 3.233467 32.589076 5.690956
2003-03-18 09:18:38 51°25.97 2°48.399 7.424548 3.233678 32.592257 5.758375
2003-03-18 09:18:44 51°25.97 2°48.4 7.70386 3.233783 32.592604 5.792084
2003-03-18 09:18:48 51°25.97 2°48.4 8.338936 3.233888 32.59295 5.859503
2003-03-18 09:18:54 51°25.97 2°48.4 8.338936 3.233888 32.59295 5.859503
2003-03-18 09:18:58 51°25.97 2°48.4 7.501913 3.23452 32.600006 5.657247
2003-03-18 09:19:04 51°25.97 2°48.4 7.183463 3.233783 32.591774 5.657247
2003-03-18 09:19:08 51°25.97 2°48.4 7.103357 3.233467 32.587417 5.657247